<?xml version="1.0" encoding="UTF-8" standalone="no" ?>
<gpx xmlns="http://www.topografix.com/GPX/1/1" xmlns:xsi="http://www.w3.org/2001/XMLSchema-instance" xsi:schemaLocation="http://www.topografix.com/GPX/1/1 http://www.topografix.com/GPX/1/1/gpx.xsd" version="1.1" creator="VisuGPX - https://www.visugpx.com">
  <metadata>
    <name>Tracé actuel: 02 AOU 2018 08:31</name>
    <desc><![CDATA[pont du casse
centre culturel
église
malère
tatchery
ste rose
darel
maury
église]]></desc>
  </metadata>
  <wpt lat="44.21956" lon="0.68856">
    <ele>160.8515625</ele>
    <name><![CDATA[Bois Des Jésuites]]></name>
    <desc><![CDATA[Bois Des Jésuites]]></desc>
    <cmt><![CDATA[Bois Des Jésuites]]></cmt>
  </wpt>
  <wpt lat="44.22609" lon="0.68059">
    <ele>89.52734375</ele>
    <name><![CDATA[Carmin]]></name>
    <desc><![CDATA[Carmin]]></desc>
    <cmt><![CDATA[Carmin]]></cmt>
  </wpt>
  <wpt lat="44.21184" lon="0.66457">
    <ele>149.42578125</ele>
    <name><![CDATA[La Frégate]]></name>
    <desc><![CDATA[La Frégate]]></desc>
    <cmt><![CDATA[La Frégate]]></cmt>
  </wpt>
  <wpt lat="44.23106" lon="0.68358">
    <ele>83.33203125</ele>
    <name><![CDATA[Mérens]]></name>
    <desc><![CDATA[Mérens]]></desc>
    <cmt><![CDATA[Mérens]]></cmt>
  </wpt>
  <wpt lat="44.21514" lon="0.66517">
    <ele>115.6328125</ele>
    <name><![CDATA[Tatchery]]></name>
    <desc><![CDATA[Tatchery]]></desc>
    <cmt><![CDATA[Tatchery]]></cmt>
  </wpt>
  <trk>
    <name><![CDATA[Tracé actuel: 02 AOU 2018 08:31]]></name>
    <trkseg>
      <trkpt lat="44.23259" lon="0.68319">
        <ele>70.79</ele>
        <time>2018-08-02T06:31:55Z</time>
      </trkpt>
      <trkpt lat="44.23259" lon="0.68319">
        <ele>70.79</ele>
        <time>2018-08-02T06:31:56Z</time>
      </trkpt>
      <trkpt lat="44.23259" lon="0.68322">
        <ele>70.31</ele>
        <time>2018-08-02T06:32:17Z</time>
      </trkpt>
      <trkpt lat="44.23257" lon="0.68322">
        <ele>70.31</ele>
        <time>2018-08-02T06:32:45Z</time>
      </trkpt>
      <trkpt lat="44.23258" lon="0.68324">
        <ele>70.31</ele>
        <time>2018-08-02T06:33:05Z</time>
      </trkpt>
      <trkpt lat="44.23257" lon="0.68321">
        <ele>70.31</ele>
        <time>2018-08-02T06:33:30Z</time>
      </trkpt>
      <trkpt lat="44.23257" lon="0.68321">
        <ele>70.31</ele>
        <time>2018-08-02T06:33:49Z</time>
      </trkpt>
      <trkpt lat="44.23255" lon="0.68315">
        <ele>70.31</ele>
        <time>2018-08-02T06:34:04Z</time>
      </trkpt>
      <trkpt lat="44.23257" lon="0.6831">
        <ele>70.31</ele>
        <time>2018-08-02T06:34:23Z</time>
      </trkpt>
      <trkpt lat="44.23265" lon="0.68299">
        <ele>70.31</ele>
        <time>2018-08-02T06:34:38Z</time>
      </trkpt>
      <trkpt lat="44.23266" lon="0.68285">
        <ele>70.31</ele>
        <time>2018-08-02T06:34:53Z</time>
      </trkpt>
      <trkpt lat="44.23262" lon="0.68266">
        <ele>69.83</ele>
        <time>2018-08-02T06:35:11Z</time>
      </trkpt>
      <trkpt lat="44.23259" lon="0.68255">
        <ele>69.83</ele>
        <time>2018-08-02T06:35:21Z</time>
      </trkpt>
      <trkpt lat="44.23253" lon="0.68235">
        <ele>69.83</ele>
        <time>2018-08-02T06:35:39Z</time>
      </trkpt>
      <trkpt lat="44.23248" lon="0.68214">
        <ele>69.83</ele>
        <time>2018-08-02T06:35:56Z</time>
      </trkpt>
      <trkpt lat="44.23246" lon="0.68197">
        <ele>69.83</ele>
        <time>2018-08-02T06:36:09Z</time>
      </trkpt>
      <trkpt lat="44.23235" lon="0.68187">
        <ele>69.83</ele>
        <time>2018-08-02T06:36:23Z</time>
      </trkpt>
      <trkpt lat="44.23224" lon="0.68181">
        <ele>69.83</ele>
        <time>2018-08-02T06:36:39Z</time>
      </trkpt>
      <trkpt lat="44.23215" lon="0.68174">
        <ele>69.35</ele>
        <time>2018-08-02T06:36:53Z</time>
      </trkpt>
      <trkpt lat="44.23201" lon="0.6817">
        <ele>69.35</ele>
        <time>2018-08-02T06:37:08Z</time>
      </trkpt>
      <trkpt lat="44.23191" lon="0.68178">
        <ele>71.27</ele>
        <time>2018-08-02T06:37:19Z</time>
      </trkpt>
      <trkpt lat="44.23188" lon="0.68183">
        <ele>71.27</ele>
        <time>2018-08-02T06:37:23Z</time>
      </trkpt>
      <trkpt lat="44.23179" lon="0.68187">
        <ele>72.24</ele>
        <time>2018-08-02T06:37:34Z</time>
      </trkpt>
      <trkpt lat="44.23168" lon="0.68192">
        <ele>73.2</ele>
        <time>2018-08-02T06:37:47Z</time>
      </trkpt>
      <trkpt lat="44.23162" lon="0.68195">
        <ele>74.16</ele>
        <time>2018-08-02T06:37:55Z</time>
      </trkpt>
      <trkpt lat="44.23152" lon="0.682">
        <ele>75.6</ele>
        <time>2018-08-02T06:38:11Z</time>
      </trkpt>
      <trkpt lat="44.23143" lon="0.68206">
        <ele>76.56</ele>
        <time>2018-08-02T06:38:24Z</time>
      </trkpt>
      <trkpt lat="44.23133" lon="0.68215">
        <ele>78.48</ele>
        <time>2018-08-02T06:38:40Z</time>
      </trkpt>
      <trkpt lat="44.23128" lon="0.68227">
        <ele>79.45</ele>
        <time>2018-08-02T06:38:52Z</time>
      </trkpt>
      <trkpt lat="44.23122" lon="0.6824">
        <ele>80.89</ele>
        <time>2018-08-02T06:39:07Z</time>
      </trkpt>
      <trkpt lat="44.23117" lon="0.68253">
        <ele>82.81</ele>
        <time>2018-08-02T06:39:19Z</time>
      </trkpt>
      <trkpt lat="44.23114" lon="0.6827">
        <ele>83.77</ele>
        <time>2018-08-02T06:39:34Z</time>
      </trkpt>
      <trkpt lat="44.23108" lon="0.68282">
        <ele>84.25</ele>
        <time>2018-08-02T06:39:48Z</time>
      </trkpt>
      <trkpt lat="44.23106" lon="0.68284">
        <ele>85.21</ele>
        <time>2018-08-02T06:39:51Z</time>
      </trkpt>
      <trkpt lat="44.23098" lon="0.68297">
        <ele>86.18</ele>
        <time>2018-08-02T06:40:05Z</time>
      </trkpt>
      <trkpt lat="44.2309" lon="0.68313">
        <ele>86.66</ele>
        <time>2018-08-02T06:40:20Z</time>
      </trkpt>
      <trkpt lat="44.23079" lon="0.6832">
        <ele>86.18</ele>
        <time>2018-08-02T06:40:34Z</time>
      </trkpt>
      <trkpt lat="44.23073" lon="0.68318">
        <ele>86.18</ele>
        <time>2018-08-02T06:40:46Z</time>
      </trkpt>
      <trkpt lat="44.23059" lon="0.68321">
        <ele>86.18</ele>
        <time>2018-08-02T06:41:02Z</time>
      </trkpt>
      <trkpt lat="44.23051" lon="0.68331">
        <ele>86.18</ele>
        <time>2018-08-02T06:41:15Z</time>
      </trkpt>
      <trkpt lat="44.23044" lon="0.6834">
        <ele>87.62</ele>
        <time>2018-08-02T06:41:27Z</time>
      </trkpt>
      <trkpt lat="44.23032" lon="0.68348">
        <ele>88.1</ele>
        <time>2018-08-02T06:41:39Z</time>
      </trkpt>
      <trkpt lat="44.2302" lon="0.68356">
        <ele>89.06</ele>
        <time>2018-08-02T06:41:53Z</time>
      </trkpt>
      <trkpt lat="44.23006" lon="0.68362">
        <ele>90.02</ele>
        <time>2018-08-02T06:42:10Z</time>
      </trkpt>
      <trkpt lat="44.22994" lon="0.68365">
        <ele>90.5</ele>
        <time>2018-08-02T06:42:24Z</time>
      </trkpt>
      <trkpt lat="44.22982" lon="0.68365">
        <ele>90.98</ele>
        <time>2018-08-02T06:42:35Z</time>
      </trkpt>
      <trkpt lat="44.22967" lon="0.68365">
        <ele>91.94</ele>
        <time>2018-08-02T06:42:51Z</time>
      </trkpt>
      <trkpt lat="44.22951" lon="0.68368">
        <ele>92.9</ele>
        <time>2018-08-02T06:43:07Z</time>
      </trkpt>
      <trkpt lat="44.22936" lon="0.6837">
        <ele>93.39</ele>
        <time>2018-08-02T06:43:22Z</time>
      </trkpt>
      <trkpt lat="44.22923" lon="0.68373">
        <ele>94.35</ele>
        <time>2018-08-02T06:43:36Z</time>
      </trkpt>
      <trkpt lat="44.2291" lon="0.68373">
        <ele>95.31</ele>
        <time>2018-08-02T06:43:51Z</time>
      </trkpt>
      <trkpt lat="44.22898" lon="0.68368">
        <ele>95.31</ele>
        <time>2018-08-02T06:44:05Z</time>
      </trkpt>
      <trkpt lat="44.22883" lon="0.68359">
        <ele>96.27</ele>
        <time>2018-08-02T06:44:21Z</time>
      </trkpt>
      <trkpt lat="44.22875" lon="0.68344">
        <ele>96.75</ele>
        <time>2018-08-02T06:44:37Z</time>
      </trkpt>
      <trkpt lat="44.22868" lon="0.68328">
        <ele>98.67</ele>
        <time>2018-08-02T06:44:53Z</time>
      </trkpt>
      <trkpt lat="44.2286" lon="0.68308">
        <ele>99.63</ele>
        <time>2018-08-02T06:45:08Z</time>
      </trkpt>
      <trkpt lat="44.22851" lon="0.6829">
        <ele>99.63</ele>
        <time>2018-08-02T06:45:25Z</time>
      </trkpt>
      <trkpt lat="44.22846" lon="0.68275">
        <ele>99.63</ele>
        <time>2018-08-02T06:45:37Z</time>
      </trkpt>
      <trkpt lat="44.22839" lon="0.6826">
        <ele>99.63</ele>
        <time>2018-08-02T06:45:50Z</time>
      </trkpt>
      <trkpt lat="44.22829" lon="0.68234">
        <ele>99.63</ele>
        <time>2018-08-02T06:46:09Z</time>
      </trkpt>
      <trkpt lat="44.22822" lon="0.68217">
        <ele>99.15</ele>
        <time>2018-08-02T06:46:24Z</time>
      </trkpt>
      <trkpt lat="44.22815" lon="0.68195">
        <ele>98.19</ele>
        <time>2018-08-02T06:46:41Z</time>
      </trkpt>
      <trkpt lat="44.22808" lon="0.68172">
        <ele>96.75</ele>
        <time>2018-08-02T06:46:58Z</time>
      </trkpt>
      <trkpt lat="44.22807" lon="0.68171">
        <ele>96.75</ele>
        <time>2018-08-02T06:46:59Z</time>
      </trkpt>
      <trkpt lat="44.22796" lon="0.68155">
        <ele>95.31</ele>
        <time>2018-08-02T06:47:14Z</time>
      </trkpt>
      <trkpt lat="44.22793" lon="0.68152">
        <ele>94.83</ele>
        <time>2018-08-02T06:47:18Z</time>
      </trkpt>
      <trkpt lat="44.22787" lon="0.68144">
        <ele>94.35</ele>
        <time>2018-08-02T06:47:26Z</time>
      </trkpt>
      <trkpt lat="44.2278" lon="0.68123">
        <ele>92.9</ele>
        <time>2018-08-02T06:47:40Z</time>
      </trkpt>
      <trkpt lat="44.22771" lon="0.68117">
        <ele>92.42</ele>
        <time>2018-08-02T06:47:50Z</time>
      </trkpt>
      <trkpt lat="44.22761" lon="0.68106">
        <ele>91.46</ele>
        <time>2018-08-02T06:48:04Z</time>
      </trkpt>
      <trkpt lat="44.22758" lon="0.68104">
        <ele>90.98</ele>
        <time>2018-08-02T06:48:08Z</time>
      </trkpt>
      <trkpt lat="44.22745" lon="0.68096">
        <ele>90.02</ele>
        <time>2018-08-02T06:48:24Z</time>
      </trkpt>
      <trkpt lat="44.22735" lon="0.68085">
        <ele>89.54</ele>
        <time>2018-08-02T06:48:36Z</time>
      </trkpt>
      <trkpt lat="44.22724" lon="0.68081">
        <ele>88.58</ele>
        <time>2018-08-02T06:48:49Z</time>
      </trkpt>
      <trkpt lat="44.22713" lon="0.68078">
        <ele>87.62</ele>
        <time>2018-08-02T06:49:02Z</time>
      </trkpt>
      <trkpt lat="44.227" lon="0.68066">
        <ele>86.18</ele>
        <time>2018-08-02T06:49:15Z</time>
      </trkpt>
      <trkpt lat="44.22686" lon="0.68057">
        <ele>84.25</ele>
        <time>2018-08-02T06:49:31Z</time>
      </trkpt>
      <trkpt lat="44.22675" lon="0.6805">
        <ele>82.33</ele>
        <time>2018-08-02T06:49:45Z</time>
      </trkpt>
      <trkpt lat="44.22672" lon="0.68048">
        <ele>81.85</ele>
        <time>2018-08-02T06:49:49Z</time>
      </trkpt>
      <trkpt lat="44.22662" lon="0.68044">
        <ele>79.93</ele>
        <time>2018-08-02T06:50:04Z</time>
      </trkpt>
      <trkpt lat="44.22653" lon="0.68042">
        <ele>78.48</ele>
        <time>2018-08-02T06:50:15Z</time>
      </trkpt>
      <trkpt lat="44.22643" lon="0.68033">
        <ele>77.04</ele>
        <time>2018-08-02T06:50:29Z</time>
      </trkpt>
      <trkpt lat="44.22632" lon="0.68018">
        <ele>76.08</ele>
        <time>2018-08-02T06:50:44Z</time>
      </trkpt>
      <trkpt lat="44.22628" lon="0.68006">
        <ele>75.6</ele>
        <time>2018-08-02T06:50:55Z</time>
      </trkpt>
      <trkpt lat="44.22624" lon="0.67984">
        <ele>75.6</ele>
        <time>2018-08-02T06:51:09Z</time>
      </trkpt>
      <trkpt lat="44.22623" lon="0.67982">
        <ele>75.6</ele>
        <time>2018-08-02T06:51:12Z</time>
      </trkpt>
      <trkpt lat="44.22621" lon="0.67976">
        <ele>75.12</ele>
        <time>2018-08-02T06:51:16Z</time>
      </trkpt>
      <trkpt lat="44.22615" lon="0.67956">
        <ele>77.04</ele>
        <time>2018-08-02T06:51:33Z</time>
      </trkpt>
      <trkpt lat="44.2261" lon="0.67943">
        <ele>78</ele>
        <time>2018-08-02T06:51:48Z</time>
      </trkpt>
      <trkpt lat="44.22608" lon="0.6794">
        <ele>78</ele>
        <time>2018-08-02T06:52:11Z</time>
      </trkpt>
      <trkpt lat="44.22603" lon="0.67938">
        <ele>78</ele>
        <time>2018-08-02T06:52:24Z</time>
      </trkpt>
      <trkpt lat="44.226" lon="0.6794">
        <ele>78.97</ele>
        <time>2018-08-02T06:52:36Z</time>
      </trkpt>
      <trkpt lat="44.22593" lon="0.67946">
        <ele>79.93</ele>
        <time>2018-08-02T06:52:49Z</time>
      </trkpt>
      <trkpt lat="44.22582" lon="0.67949">
        <ele>80.89</ele>
        <time>2018-08-02T06:53:03Z</time>
      </trkpt>
      <trkpt lat="44.22571" lon="0.67957">
        <ele>81.85</ele>
        <time>2018-08-02T06:53:20Z</time>
      </trkpt>
      <trkpt lat="44.22562" lon="0.67963">
        <ele>82.81</ele>
        <time>2018-08-02T06:53:35Z</time>
      </trkpt>
      <trkpt lat="44.22547" lon="0.67965">
        <ele>83.29</ele>
        <time>2018-08-02T06:53:49Z</time>
      </trkpt>
      <trkpt lat="44.22534" lon="0.67968">
        <ele>83.77</ele>
        <time>2018-08-02T06:54:04Z</time>
      </trkpt>
      <trkpt lat="44.22519" lon="0.67968">
        <ele>84.73</ele>
        <time>2018-08-02T06:54:21Z</time>
      </trkpt>
      <trkpt lat="44.2251" lon="0.67967">
        <ele>85.21</ele>
        <time>2018-08-02T06:54:35Z</time>
      </trkpt>
      <trkpt lat="44.22505" lon="0.67965">
        <ele>85.69</ele>
        <time>2018-08-02T06:54:42Z</time>
      </trkpt>
      <trkpt lat="44.22502" lon="0.67964">
        <ele>85.69</ele>
        <time>2018-08-02T06:54:45Z</time>
      </trkpt>
      <trkpt lat="44.22489" lon="0.67963">
        <ele>86.18</ele>
        <time>2018-08-02T06:55:01Z</time>
      </trkpt>
      <trkpt lat="44.22476" lon="0.67962">
        <ele>87.14</ele>
        <time>2018-08-02T06:55:16Z</time>
      </trkpt>
      <trkpt lat="44.22461" lon="0.67962">
        <ele>88.58</ele>
        <time>2018-08-02T06:55:34Z</time>
      </trkpt>
      <trkpt lat="44.2245" lon="0.6796">
        <ele>89.54</ele>
        <time>2018-08-02T06:55:49Z</time>
      </trkpt>
      <trkpt lat="44.2244" lon="0.67959">
        <ele>90.5</ele>
        <time>2018-08-02T06:56:04Z</time>
      </trkpt>
      <trkpt lat="44.22431" lon="0.67958">
        <ele>91.94</ele>
        <time>2018-08-02T06:56:20Z</time>
      </trkpt>
      <trkpt lat="44.22419" lon="0.67955">
        <ele>92.9</ele>
        <time>2018-08-02T06:56:37Z</time>
      </trkpt>
      <trkpt lat="44.22409" lon="0.67953">
        <ele>94.35</ele>
        <time>2018-08-02T06:56:53Z</time>
      </trkpt>
      <trkpt lat="44.22401" lon="0.6795">
        <ele>95.31</ele>
        <time>2018-08-02T06:57:07Z</time>
      </trkpt>
      <trkpt lat="44.2239" lon="0.67949">
        <ele>96.75</ele>
        <time>2018-08-02T06:57:22Z</time>
      </trkpt>
      <trkpt lat="44.22382" lon="0.67947">
        <ele>97.23</ele>
        <time>2018-08-02T06:57:35Z</time>
      </trkpt>
      <trkpt lat="44.22373" lon="0.67956">
        <ele>98.19</ele>
        <time>2018-08-02T06:57:48Z</time>
      </trkpt>
      <trkpt lat="44.22368" lon="0.67965">
        <ele>98.67</ele>
        <time>2018-08-02T06:58:01Z</time>
      </trkpt>
      <trkpt lat="44.2236" lon="0.67973">
        <ele>99.63</ele>
        <time>2018-08-02T06:58:17Z</time>
      </trkpt>
      <trkpt lat="44.22354" lon="0.67983">
        <ele>100.6</ele>
        <time>2018-08-02T06:58:32Z</time>
      </trkpt>
      <trkpt lat="44.22348" lon="0.67993">
        <ele>101.56</ele>
        <time>2018-08-02T06:58:45Z</time>
      </trkpt>
      <trkpt lat="44.22344" lon="0.68002">
        <ele>101.56</ele>
        <time>2018-08-02T06:59:01Z</time>
      </trkpt>
      <trkpt lat="44.22341" lon="0.68005">
        <ele>101.56</ele>
        <time>2018-08-02T06:59:25Z</time>
      </trkpt>
      <trkpt lat="44.22336" lon="0.68012">
        <ele>101.56</ele>
        <time>2018-08-02T06:59:40Z</time>
      </trkpt>
      <trkpt lat="44.22338" lon="0.68013">
        <ele>101.56</ele>
        <time>2018-08-02T06:59:55Z</time>
      </trkpt>
      <trkpt lat="44.22331" lon="0.68015">
        <ele>103</ele>
        <time>2018-08-02T07:00:10Z</time>
      </trkpt>
      <trkpt lat="44.22321" lon="0.68024">
        <ele>104.44</ele>
        <time>2018-08-02T07:00:24Z</time>
      </trkpt>
      <trkpt lat="44.22313" lon="0.68027">
        <ele>106.84</ele>
        <time>2018-08-02T07:00:38Z</time>
      </trkpt>
      <trkpt lat="44.22304" lon="0.68028">
        <ele>108.29</ele>
        <time>2018-08-02T07:00:54Z</time>
      </trkpt>
      <trkpt lat="44.223" lon="0.68028">
        <ele>109.25</ele>
        <time>2018-08-02T07:01:06Z</time>
      </trkpt>
      <trkpt lat="44.22293" lon="0.68039">
        <ele>110.69</ele>
        <time>2018-08-02T07:01:23Z</time>
      </trkpt>
      <trkpt lat="44.22289" lon="0.68044">
        <ele>111.65</ele>
        <time>2018-08-02T07:01:41Z</time>
      </trkpt>
      <trkpt lat="44.22283" lon="0.68055">
        <ele>113.09</ele>
        <time>2018-08-02T07:01:56Z</time>
      </trkpt>
      <trkpt lat="44.22279" lon="0.68064">
        <ele>115.01</ele>
        <time>2018-08-02T07:02:10Z</time>
      </trkpt>
      <trkpt lat="44.22273" lon="0.68072">
        <ele>116.94</ele>
        <time>2018-08-02T07:02:25Z</time>
      </trkpt>
      <trkpt lat="44.2227" lon="0.68076">
        <ele>117.9</ele>
        <time>2018-08-02T07:02:38Z</time>
      </trkpt>
      <trkpt lat="44.22265" lon="0.68083">
        <ele>119.82</ele>
        <time>2018-08-02T07:02:54Z</time>
      </trkpt>
      <trkpt lat="44.22257" lon="0.68093">
        <ele>121.26</ele>
        <time>2018-08-02T07:03:09Z</time>
      </trkpt>
      <trkpt lat="44.22255" lon="0.68098">
        <ele>121.74</ele>
        <time>2018-08-02T07:03:17Z</time>
      </trkpt>
      <trkpt lat="44.22248" lon="0.68105">
        <ele>122.71</ele>
        <time>2018-08-02T07:03:30Z</time>
      </trkpt>
      <trkpt lat="44.22244" lon="0.68107">
        <ele>123.19</ele>
        <time>2018-08-02T07:03:43Z</time>
      </trkpt>
      <trkpt lat="44.22235" lon="0.6812">
        <ele>123.19</ele>
        <time>2018-08-02T07:04:08Z</time>
      </trkpt>
      <trkpt lat="44.22245" lon="0.68122">
        <ele>123.19</ele>
        <time>2018-08-02T07:04:39Z</time>
      </trkpt>
      <trkpt lat="44.22242" lon="0.68116">
        <ele>123.19</ele>
        <time>2018-08-02T07:05:08Z</time>
      </trkpt>
      <trkpt lat="44.22247" lon="0.68108">
        <ele>123.67</ele>
        <time>2018-08-02T07:05:33Z</time>
      </trkpt>
      <trkpt lat="44.22241" lon="0.68114">
        <ele>123.67</ele>
        <time>2018-08-02T07:05:57Z</time>
      </trkpt>
      <trkpt lat="44.22237" lon="0.6812">
        <ele>123.67</ele>
        <time>2018-08-02T07:06:10Z</time>
      </trkpt>
      <trkpt lat="44.2223" lon="0.68125">
        <ele>123.67</ele>
        <time>2018-08-02T07:06:24Z</time>
      </trkpt>
      <trkpt lat="44.22221" lon="0.68132">
        <ele>124.15</ele>
        <time>2018-08-02T07:06:37Z</time>
      </trkpt>
      <trkpt lat="44.2221" lon="0.68141">
        <ele>125.11</ele>
        <time>2018-08-02T07:06:52Z</time>
      </trkpt>
      <trkpt lat="44.22203" lon="0.68151">
        <ele>125.59</ele>
        <time>2018-08-02T07:07:04Z</time>
      </trkpt>
      <trkpt lat="44.22194" lon="0.6816">
        <ele>125.59</ele>
        <time>2018-08-02T07:07:16Z</time>
      </trkpt>
      <trkpt lat="44.22192" lon="0.68162">
        <ele>125.59</ele>
        <time>2018-08-02T07:07:19Z</time>
      </trkpt>
      <trkpt lat="44.22184" lon="0.68166">
        <ele>124.63</ele>
        <time>2018-08-02T07:07:32Z</time>
      </trkpt>
      <trkpt lat="44.22178" lon="0.6818">
        <ele>124.15</ele>
        <time>2018-08-02T07:07:44Z</time>
      </trkpt>
      <trkpt lat="44.22166" lon="0.68198">
        <ele>124.15</ele>
        <time>2018-08-02T07:07:59Z</time>
      </trkpt>
      <trkpt lat="44.22154" lon="0.68216">
        <ele>124.15</ele>
        <time>2018-08-02T07:08:13Z</time>
      </trkpt>
      <trkpt lat="44.22149" lon="0.68222">
        <ele>124.15</ele>
        <time>2018-08-02T07:08:24Z</time>
      </trkpt>
      <trkpt lat="44.22142" lon="0.68228">
        <ele>125.11</ele>
        <time>2018-08-02T07:08:37Z</time>
      </trkpt>
      <trkpt lat="44.22138" lon="0.68236">
        <ele>126.07</ele>
        <time>2018-08-02T07:08:50Z</time>
      </trkpt>
      <trkpt lat="44.22137" lon="0.68243">
        <ele>126.55</ele>
        <time>2018-08-02T07:09:02Z</time>
      </trkpt>
      <trkpt lat="44.22134" lon="0.68245">
        <ele>128.47</ele>
        <time>2018-08-02T07:09:18Z</time>
      </trkpt>
      <trkpt lat="44.22132" lon="0.68257">
        <ele>129.43</ele>
        <time>2018-08-02T07:09:33Z</time>
      </trkpt>
      <trkpt lat="44.22127" lon="0.68274">
        <ele>129.92</ele>
        <time>2018-08-02T07:09:46Z</time>
      </trkpt>
      <trkpt lat="44.22124" lon="0.6828">
        <ele>130.4</ele>
        <time>2018-08-02T07:09:51Z</time>
      </trkpt>
      <trkpt lat="44.2212" lon="0.68286">
        <ele>130.4</ele>
        <time>2018-08-02T07:09:56Z</time>
      </trkpt>
      <trkpt lat="44.22117" lon="0.68299">
        <ele>130.88</ele>
        <time>2018-08-02T07:10:08Z</time>
      </trkpt>
      <trkpt lat="44.22116" lon="0.68315">
        <ele>131.36</ele>
        <time>2018-08-02T07:10:21Z</time>
      </trkpt>
      <trkpt lat="44.22114" lon="0.68327">
        <ele>132.32</ele>
        <time>2018-08-02T07:10:34Z</time>
      </trkpt>
      <trkpt lat="44.22113" lon="0.68337">
        <ele>133.28</ele>
        <time>2018-08-02T07:10:46Z</time>
      </trkpt>
      <trkpt lat="44.22114" lon="0.68344">
        <ele>134.72</ele>
        <time>2018-08-02T07:11:01Z</time>
      </trkpt>
      <trkpt lat="44.22115" lon="0.68356">
        <ele>136.16</ele>
        <time>2018-08-02T07:11:15Z</time>
      </trkpt>
      <trkpt lat="44.22114" lon="0.68365">
        <ele>137.13</ele>
        <time>2018-08-02T07:11:27Z</time>
      </trkpt>
      <trkpt lat="44.22115" lon="0.68372">
        <ele>137.61</ele>
        <time>2018-08-02T07:11:40Z</time>
      </trkpt>
      <trkpt lat="44.22116" lon="0.68384">
        <ele>139.05</ele>
        <time>2018-08-02T07:11:54Z</time>
      </trkpt>
      <trkpt lat="44.22113" lon="0.68391">
        <ele>140.01</ele>
        <time>2018-08-02T07:12:10Z</time>
      </trkpt>
      <trkpt lat="44.22113" lon="0.68402">
        <ele>141.45</ele>
        <time>2018-08-02T07:12:26Z</time>
      </trkpt>
      <trkpt lat="44.22117" lon="0.68413">
        <ele>141.93</ele>
        <time>2018-08-02T07:12:39Z</time>
      </trkpt>
      <trkpt lat="44.22115" lon="0.68412">
        <ele>142.41</ele>
        <time>2018-08-02T07:12:46Z</time>
      </trkpt>
      <trkpt lat="44.2211" lon="0.68409">
        <ele>143.37</ele>
        <time>2018-08-02T07:13:00Z</time>
      </trkpt>
      <trkpt lat="44.22102" lon="0.68407">
        <ele>144.82</ele>
        <time>2018-08-02T07:13:14Z</time>
      </trkpt>
      <trkpt lat="44.22094" lon="0.68408">
        <ele>146.26</ele>
        <time>2018-08-02T07:13:27Z</time>
      </trkpt>
      <trkpt lat="44.22089" lon="0.68411">
        <ele>147.22</ele>
        <time>2018-08-02T07:13:34Z</time>
      </trkpt>
      <trkpt lat="44.22077" lon="0.68415">
        <ele>147.7</ele>
        <time>2018-08-02T07:13:47Z</time>
      </trkpt>
      <trkpt lat="44.22069" lon="0.68416">
        <ele>148.18</ele>
        <time>2018-08-02T07:13:57Z</time>
      </trkpt>
      <trkpt lat="44.22061" lon="0.68419">
        <ele>148.66</ele>
        <time>2018-08-02T07:14:08Z</time>
      </trkpt>
      <trkpt lat="44.22049" lon="0.68424">
        <ele>149.14</ele>
        <time>2018-08-02T07:14:20Z</time>
      </trkpt>
      <trkpt lat="44.22039" lon="0.68427">
        <ele>149.62</ele>
        <time>2018-08-02T07:14:31Z</time>
      </trkpt>
      <trkpt lat="44.22032" lon="0.68431">
        <ele>149.62</ele>
        <time>2018-08-02T07:14:39Z</time>
      </trkpt>
      <trkpt lat="44.22021" lon="0.68436">
        <ele>149.62</ele>
        <time>2018-08-02T07:14:51Z</time>
      </trkpt>
      <trkpt lat="44.22011" lon="0.68437">
        <ele>150.1</ele>
        <time>2018-08-02T07:15:02Z</time>
      </trkpt>
      <trkpt lat="44.22002" lon="0.68437">
        <ele>151.06</ele>
        <time>2018-08-02T07:15:16Z</time>
      </trkpt>
      <trkpt lat="44.2199" lon="0.6844">
        <ele>151.54</ele>
        <time>2018-08-02T07:15:29Z</time>
      </trkpt>
      <trkpt lat="44.2198" lon="0.68449">
        <ele>152.03</ele>
        <time>2018-08-02T07:15:42Z</time>
      </trkpt>
      <trkpt lat="44.2198" lon="0.68459">
        <ele>152.03</ele>
        <time>2018-08-02T07:15:53Z</time>
      </trkpt>
      <trkpt lat="44.21984" lon="0.68469">
        <ele>152.03</ele>
        <time>2018-08-02T07:16:07Z</time>
      </trkpt>
      <trkpt lat="44.21994" lon="0.68486">
        <ele>150.58</ele>
        <time>2018-08-02T07:16:21Z</time>
      </trkpt>
      <trkpt lat="44.21996" lon="0.68507">
        <ele>150.1</ele>
        <time>2018-08-02T07:16:35Z</time>
      </trkpt>
      <trkpt lat="44.22" lon="0.68518">
        <ele>150.1</ele>
        <time>2018-08-02T07:16:47Z</time>
      </trkpt>
      <trkpt lat="44.22001" lon="0.68522">
        <ele>150.1</ele>
        <time>2018-08-02T07:16:54Z</time>
      </trkpt>
      <trkpt lat="44.22" lon="0.68532">
        <ele>150.1</ele>
        <time>2018-08-02T07:17:05Z</time>
      </trkpt>
      <trkpt lat="44.21997" lon="0.6854">
        <ele>151.54</ele>
        <time>2018-08-02T07:17:12Z</time>
      </trkpt>
      <trkpt lat="44.21998" lon="0.68549">
        <ele>152.51</ele>
        <time>2018-08-02T07:17:24Z</time>
      </trkpt>
      <trkpt lat="44.22002" lon="0.68554">
        <ele>152.99</ele>
        <time>2018-08-02T07:17:37Z</time>
      </trkpt>
      <trkpt lat="44.22015" lon="0.68567">
        <ele>152.99</ele>
        <time>2018-08-02T07:17:50Z</time>
      </trkpt>
      <trkpt lat="44.2202" lon="0.68573">
        <ele>151.54</ele>
        <time>2018-08-02T07:17:56Z</time>
      </trkpt>
      <trkpt lat="44.22023" lon="0.68587">
        <ele>150.58</ele>
        <time>2018-08-02T07:18:08Z</time>
      </trkpt>
      <trkpt lat="44.22027" lon="0.68597">
        <ele>150.58</ele>
        <time>2018-08-02T07:18:20Z</time>
      </trkpt>
      <trkpt lat="44.2203" lon="0.68607">
        <ele>150.58</ele>
        <time>2018-08-02T07:18:33Z</time>
      </trkpt>
      <trkpt lat="44.22038" lon="0.68623">
        <ele>150.1</ele>
        <time>2018-08-02T07:18:47Z</time>
      </trkpt>
      <trkpt lat="44.22041" lon="0.68631">
        <ele>150.1</ele>
        <time>2018-08-02T07:18:54Z</time>
      </trkpt>
      <trkpt lat="44.22043" lon="0.68633">
        <ele>150.1</ele>
        <time>2018-08-02T07:18:56Z</time>
      </trkpt>
      <trkpt lat="44.22057" lon="0.68641">
        <ele>150.1</ele>
        <time>2018-08-02T07:19:11Z</time>
      </trkpt>
      <trkpt lat="44.22066" lon="0.68645">
        <ele>150.1</ele>
        <time>2018-08-02T07:19:24Z</time>
      </trkpt>
      <trkpt lat="44.22074" lon="0.68648">
        <ele>150.1</ele>
        <time>2018-08-02T07:19:38Z</time>
      </trkpt>
      <trkpt lat="44.22078" lon="0.6866">
        <ele>150.1</ele>
        <time>2018-08-02T07:19:52Z</time>
      </trkpt>
      <trkpt lat="44.22084" lon="0.68677">
        <ele>150.58</ele>
        <time>2018-08-02T07:20:07Z</time>
      </trkpt>
      <trkpt lat="44.22087" lon="0.68696">
        <ele>150.58</ele>
        <time>2018-08-02T07:20:22Z</time>
      </trkpt>
      <trkpt lat="44.22089" lon="0.68713">
        <ele>150.58</ele>
        <time>2018-08-02T07:20:38Z</time>
      </trkpt>
      <trkpt lat="44.22094" lon="0.68722">
        <ele>150.58</ele>
        <time>2018-08-02T07:20:48Z</time>
      </trkpt>
      <trkpt lat="44.22102" lon="0.68734">
        <ele>150.58</ele>
        <time>2018-08-02T07:21:01Z</time>
      </trkpt>
      <trkpt lat="44.22105" lon="0.68746">
        <ele>150.58</ele>
        <time>2018-08-02T07:21:18Z</time>
      </trkpt>
      <trkpt lat="44.22103" lon="0.68756">
        <ele>150.58</ele>
        <time>2018-08-02T07:21:30Z</time>
      </trkpt>
      <trkpt lat="44.22105" lon="0.68776">
        <ele>150.58</ele>
        <time>2018-08-02T07:21:45Z</time>
      </trkpt>
      <trkpt lat="44.22111" lon="0.68789">
        <ele>150.58</ele>
        <time>2018-08-02T07:21:59Z</time>
      </trkpt>
      <trkpt lat="44.22113" lon="0.68802">
        <ele>151.54</ele>
        <time>2018-08-02T07:22:11Z</time>
      </trkpt>
      <trkpt lat="44.22118" lon="0.68817">
        <ele>151.54</ele>
        <time>2018-08-02T07:22:25Z</time>
      </trkpt>
      <trkpt lat="44.22121" lon="0.68836">
        <ele>152.03</ele>
        <time>2018-08-02T07:22:41Z</time>
      </trkpt>
      <trkpt lat="44.22126" lon="0.68854">
        <ele>152.51</ele>
        <time>2018-08-02T07:22:57Z</time>
      </trkpt>
      <trkpt lat="44.22125" lon="0.68874">
        <ele>152.99</ele>
        <time>2018-08-02T07:23:11Z</time>
      </trkpt>
      <trkpt lat="44.22123" lon="0.6889">
        <ele>153.95</ele>
        <time>2018-08-02T07:23:25Z</time>
      </trkpt>
      <trkpt lat="44.22123" lon="0.68906">
        <ele>154.91</ele>
        <time>2018-08-02T07:23:40Z</time>
      </trkpt>
      <trkpt lat="44.22129" lon="0.6892">
        <ele>155.87</ele>
        <time>2018-08-02T07:23:54Z</time>
      </trkpt>
      <trkpt lat="44.22132" lon="0.68933">
        <ele>156.35</ele>
        <time>2018-08-02T07:24:07Z</time>
      </trkpt>
      <trkpt lat="44.22131" lon="0.68952">
        <ele>156.83</ele>
        <time>2018-08-02T07:24:22Z</time>
      </trkpt>
      <trkpt lat="44.22128" lon="0.68965">
        <ele>158.27</ele>
        <time>2018-08-02T07:24:36Z</time>
      </trkpt>
      <trkpt lat="44.22126" lon="0.68975">
        <ele>159.24</ele>
        <time>2018-08-02T07:24:49Z</time>
      </trkpt>
      <trkpt lat="44.22123" lon="0.68989">
        <ele>159.24</ele>
        <time>2018-08-02T07:25:03Z</time>
      </trkpt>
      <trkpt lat="44.22119" lon="0.69004">
        <ele>159.72</ele>
        <time>2018-08-02T07:25:20Z</time>
      </trkpt>
      <trkpt lat="44.22113" lon="0.69019">
        <ele>160.2</ele>
        <time>2018-08-02T07:25:33Z</time>
      </trkpt>
      <trkpt lat="44.22112" lon="0.69029">
        <ele>160.68</ele>
        <time>2018-08-02T07:25:43Z</time>
      </trkpt>
      <trkpt lat="44.22112" lon="0.69042">
        <ele>160.68</ele>
        <time>2018-08-02T07:25:56Z</time>
      </trkpt>
      <trkpt lat="44.2211" lon="0.69057">
        <ele>161.16</ele>
        <time>2018-08-02T07:26:10Z</time>
      </trkpt>
      <trkpt lat="44.22108" lon="0.6907">
        <ele>161.64</ele>
        <time>2018-08-02T07:26:23Z</time>
      </trkpt>
      <trkpt lat="44.22108" lon="0.69081">
        <ele>162.12</ele>
        <time>2018-08-02T07:26:34Z</time>
      </trkpt>
      <trkpt lat="44.2211" lon="0.69095">
        <ele>163.08</ele>
        <time>2018-08-02T07:26:46Z</time>
      </trkpt>
      <trkpt lat="44.22106" lon="0.69107">
        <ele>163.56</ele>
        <time>2018-08-02T07:26:59Z</time>
      </trkpt>
      <trkpt lat="44.22098" lon="0.69115">
        <ele>164.04</ele>
        <time>2018-08-02T07:27:17Z</time>
      </trkpt>
      <trkpt lat="44.22088" lon="0.69125">
        <ele>164.04</ele>
        <time>2018-08-02T07:27:33Z</time>
      </trkpt>
      <trkpt lat="44.22078" lon="0.69138">
        <ele>164.04</ele>
        <time>2018-08-02T07:27:46Z</time>
      </trkpt>
      <trkpt lat="44.22069" lon="0.69149">
        <ele>165</ele>
        <time>2018-08-02T07:28:01Z</time>
      </trkpt>
      <trkpt lat="44.22055" lon="0.69167">
        <ele>165</ele>
        <time>2018-08-02T07:28:18Z</time>
      </trkpt>
      <trkpt lat="44.22054" lon="0.69168">
        <ele>165</ele>
        <time>2018-08-02T07:28:19Z</time>
      </trkpt>
      <trkpt lat="44.22041" lon="0.69181">
        <ele>165.48</ele>
        <time>2018-08-02T07:28:33Z</time>
      </trkpt>
      <trkpt lat="44.22035" lon="0.69189">
        <ele>165.48</ele>
        <time>2018-08-02T07:28:43Z</time>
      </trkpt>
      <trkpt lat="44.22031" lon="0.69198">
        <ele>165.48</ele>
        <time>2018-08-02T07:28:54Z</time>
      </trkpt>
      <trkpt lat="44.22022" lon="0.6921">
        <ele>165.48</ele>
        <time>2018-08-02T07:29:10Z</time>
      </trkpt>
      <trkpt lat="44.22011" lon="0.69222">
        <ele>166.45</ele>
        <time>2018-08-02T07:29:25Z</time>
      </trkpt>
      <trkpt lat="44.22003" lon="0.69231">
        <ele>166.45</ele>
        <time>2018-08-02T07:29:39Z</time>
      </trkpt>
      <trkpt lat="44.21989" lon="0.69244">
        <ele>167.41</ele>
        <time>2018-08-02T07:29:54Z</time>
      </trkpt>
      <trkpt lat="44.21975" lon="0.69256">
        <ele>167.89</ele>
        <time>2018-08-02T07:30:10Z</time>
      </trkpt>
      <trkpt lat="44.21962" lon="0.69267">
        <ele>168.37</ele>
        <time>2018-08-02T07:30:25Z</time>
      </trkpt>
      <trkpt lat="44.2195" lon="0.69277">
        <ele>168.85</ele>
        <time>2018-08-02T07:30:42Z</time>
      </trkpt>
      <trkpt lat="44.21938" lon="0.69288">
        <ele>168.85</ele>
        <time>2018-08-02T07:30:58Z</time>
      </trkpt>
      <trkpt lat="44.21923" lon="0.69302">
        <ele>168.85</ele>
        <time>2018-08-02T07:31:16Z</time>
      </trkpt>
      <trkpt lat="44.21909" lon="0.69315">
        <ele>169.33</ele>
        <time>2018-08-02T07:31:34Z</time>
      </trkpt>
      <trkpt lat="44.21895" lon="0.69323">
        <ele>169.33</ele>
        <time>2018-08-02T07:31:50Z</time>
      </trkpt>
      <trkpt lat="44.21881" lon="0.69337">
        <ele>169.33</ele>
        <time>2018-08-02T07:32:06Z</time>
      </trkpt>
      <trkpt lat="44.21872" lon="0.69347">
        <ele>169.33</ele>
        <time>2018-08-02T07:32:21Z</time>
      </trkpt>
      <trkpt lat="44.21867" lon="0.69342">
        <ele>169.33</ele>
        <time>2018-08-02T07:32:35Z</time>
      </trkpt>
      <trkpt lat="44.21865" lon="0.69327">
        <ele>169.33</ele>
        <time>2018-08-02T07:32:49Z</time>
      </trkpt>
      <trkpt lat="44.21858" lon="0.69297">
        <ele>169.33</ele>
        <time>2018-08-02T07:33:08Z</time>
      </trkpt>
      <trkpt lat="44.2185" lon="0.69274">
        <ele>168.37</ele>
        <time>2018-08-02T07:33:23Z</time>
      </trkpt>
      <trkpt lat="44.21842" lon="0.69247">
        <ele>167.89</ele>
        <time>2018-08-02T07:33:43Z</time>
      </trkpt>
      <trkpt lat="44.21834" lon="0.69215">
        <ele>167.89</ele>
        <time>2018-08-02T07:34:04Z</time>
      </trkpt>
      <trkpt lat="44.21828" lon="0.69191">
        <ele>167.89</ele>
        <time>2018-08-02T07:34:21Z</time>
      </trkpt>
      <trkpt lat="44.21819" lon="0.69162">
        <ele>167.41</ele>
        <time>2018-08-02T07:34:42Z</time>
      </trkpt>
      <trkpt lat="44.21816" lon="0.69154">
        <ele>167.41</ele>
        <time>2018-08-02T07:34:48Z</time>
      </trkpt>
      <trkpt lat="44.21807" lon="0.69131">
        <ele>167.41</ele>
        <time>2018-08-02T07:35:06Z</time>
      </trkpt>
      <trkpt lat="44.21798" lon="0.69114">
        <ele>167.41</ele>
        <time>2018-08-02T07:35:24Z</time>
      </trkpt>
      <trkpt lat="44.21803" lon="0.6911">
        <ele>167.41</ele>
        <time>2018-08-02T07:35:36Z</time>
      </trkpt>
      <trkpt lat="44.21807" lon="0.691">
        <ele>165.96</ele>
        <time>2018-08-02T07:35:51Z</time>
      </trkpt>
      <trkpt lat="44.21807" lon="0.69095">
        <ele>165.96</ele>
        <time>2018-08-02T07:36:14Z</time>
      </trkpt>
      <trkpt lat="44.21808" lon="0.69092">
        <ele>165.96</ele>
        <time>2018-08-02T07:36:33Z</time>
      </trkpt>
      <trkpt lat="44.21808" lon="0.69094">
        <ele>165.96</ele>
        <time>2018-08-02T07:36:56Z</time>
      </trkpt>
      <trkpt lat="44.21807" lon="0.69096">
        <ele>165.96</ele>
        <time>2018-08-02T07:37:14Z</time>
      </trkpt>
      <trkpt lat="44.21813" lon="0.691">
        <ele>165.96</ele>
        <time>2018-08-02T07:37:32Z</time>
      </trkpt>
      <trkpt lat="44.21812" lon="0.69089">
        <ele>165.48</ele>
        <time>2018-08-02T07:37:48Z</time>
      </trkpt>
      <trkpt lat="44.2181" lon="0.69083">
        <ele>165.48</ele>
        <time>2018-08-02T07:38:00Z</time>
      </trkpt>
      <trkpt lat="44.21802" lon="0.69067">
        <ele>165</ele>
        <time>2018-08-02T07:38:18Z</time>
      </trkpt>
      <trkpt lat="44.21793" lon="0.69048">
        <ele>164.04</ele>
        <time>2018-08-02T07:38:35Z</time>
      </trkpt>
      <trkpt lat="44.21783" lon="0.69038">
        <ele>163.56</ele>
        <time>2018-08-02T07:38:48Z</time>
      </trkpt>
      <trkpt lat="44.21774" lon="0.69021">
        <ele>163.56</ele>
        <time>2018-08-02T07:39:05Z</time>
      </trkpt>
      <trkpt lat="44.21771" lon="0.69">
        <ele>163.56</ele>
        <time>2018-08-02T07:39:22Z</time>
      </trkpt>
      <trkpt lat="44.21767" lon="0.6898">
        <ele>163.56</ele>
        <time>2018-08-02T07:39:38Z</time>
      </trkpt>
      <trkpt lat="44.2177" lon="0.68966">
        <ele>163.56</ele>
        <time>2018-08-02T07:39:51Z</time>
      </trkpt>
      <trkpt lat="44.21766" lon="0.68951">
        <ele>165</ele>
        <time>2018-08-02T07:40:06Z</time>
      </trkpt>
      <trkpt lat="44.21766" lon="0.68938">
        <ele>165.48</ele>
        <time>2018-08-02T07:40:19Z</time>
      </trkpt>
      <trkpt lat="44.21764" lon="0.68927">
        <ele>166.45</ele>
        <time>2018-08-02T07:40:37Z</time>
      </trkpt>
      <trkpt lat="44.21763" lon="0.68914">
        <ele>167.41</ele>
        <time>2018-08-02T07:40:52Z</time>
      </trkpt>
      <trkpt lat="44.2176" lon="0.68899">
        <ele>167.89</ele>
        <time>2018-08-02T07:41:07Z</time>
      </trkpt>
      <trkpt lat="44.21756" lon="0.68892">
        <ele>168.37</ele>
        <time>2018-08-02T07:41:14Z</time>
      </trkpt>
      <trkpt lat="44.21748" lon="0.68878">
        <ele>168.85</ele>
        <time>2018-08-02T07:41:30Z</time>
      </trkpt>
      <trkpt lat="44.21744" lon="0.68882">
        <ele>168.85</ele>
        <time>2018-08-02T07:41:55Z</time>
      </trkpt>
      <trkpt lat="44.21745" lon="0.68886">
        <ele>168.85</ele>
        <time>2018-08-02T07:42:20Z</time>
      </trkpt>
      <trkpt lat="44.21745" lon="0.68881">
        <ele>168.85</ele>
        <time>2018-08-02T07:42:42Z</time>
      </trkpt>
      <trkpt lat="44.21745" lon="0.68879">
        <ele>169.33</ele>
        <time>2018-08-02T07:42:59Z</time>
      </trkpt>
      <trkpt lat="44.21744" lon="0.68878">
        <ele>169.33</ele>
        <time>2018-08-02T07:43:27Z</time>
      </trkpt>
      <trkpt lat="44.21743" lon="0.68877">
        <ele>169.33</ele>
        <time>2018-08-02T07:43:55Z</time>
      </trkpt>
      <trkpt lat="44.21739" lon="0.68869">
        <ele>169.33</ele>
        <time>2018-08-02T07:44:14Z</time>
      </trkpt>
      <trkpt lat="44.21738" lon="0.68863">
        <ele>169.33</ele>
        <time>2018-08-02T07:44:20Z</time>
      </trkpt>
      <trkpt lat="44.21735" lon="0.68844">
        <ele>169.33</ele>
        <time>2018-08-02T07:44:36Z</time>
      </trkpt>
      <trkpt lat="44.21733" lon="0.68836">
        <ele>169.33</ele>
        <time>2018-08-02T07:44:43Z</time>
      </trkpt>
      <trkpt lat="44.21728" lon="0.68821">
        <ele>168.37</ele>
        <time>2018-08-02T07:44:59Z</time>
      </trkpt>
      <trkpt lat="44.21729" lon="0.68819">
        <ele>167.89</ele>
        <time>2018-08-02T07:45:01Z</time>
      </trkpt>
      <trkpt lat="44.21731" lon="0.68797">
        <ele>166.45</ele>
        <time>2018-08-02T07:45:16Z</time>
      </trkpt>
      <trkpt lat="44.21733" lon="0.6878">
        <ele>165.96</ele>
        <time>2018-08-02T07:45:31Z</time>
      </trkpt>
      <trkpt lat="44.21732" lon="0.68768">
        <ele>165</ele>
        <time>2018-08-02T07:45:44Z</time>
      </trkpt>
      <trkpt lat="44.21732" lon="0.68764">
        <ele>164.52</ele>
        <time>2018-08-02T07:45:49Z</time>
      </trkpt>
      <trkpt lat="44.21733" lon="0.6875">
        <ele>163.08</ele>
        <time>2018-08-02T07:46:01Z</time>
      </trkpt>
      <trkpt lat="44.21737" lon="0.68729">
        <ele>161.64</ele>
        <time>2018-08-02T07:46:17Z</time>
      </trkpt>
      <trkpt lat="44.21738" lon="0.68723">
        <ele>161.16</ele>
        <time>2018-08-02T07:46:21Z</time>
      </trkpt>
      <trkpt lat="44.21734" lon="0.68703">
        <ele>160.68</ele>
        <time>2018-08-02T07:46:38Z</time>
      </trkpt>
      <trkpt lat="44.21727" lon="0.68685">
        <ele>160.68</ele>
        <time>2018-08-02T07:46:55Z</time>
      </trkpt>
      <trkpt lat="44.21721" lon="0.68671">
        <ele>162.6</ele>
        <time>2018-08-02T07:47:09Z</time>
      </trkpt>
      <trkpt lat="44.21716" lon="0.68656">
        <ele>163.56</ele>
        <time>2018-08-02T07:47:24Z</time>
      </trkpt>
      <trkpt lat="44.21714" lon="0.68651">
        <ele>164.04</ele>
        <time>2018-08-02T07:47:29Z</time>
      </trkpt>
      <trkpt lat="44.21708" lon="0.68636">
        <ele>165</ele>
        <time>2018-08-02T07:47:44Z</time>
      </trkpt>
      <trkpt lat="44.21708" lon="0.68635">
        <ele>165</ele>
        <time>2018-08-02T07:47:45Z</time>
      </trkpt>
      <trkpt lat="44.21706" lon="0.6863">
        <ele>165.48</ele>
        <time>2018-08-02T07:47:49Z</time>
      </trkpt>
      <trkpt lat="44.21699" lon="0.68614">
        <ele>165.96</ele>
        <time>2018-08-02T07:48:05Z</time>
      </trkpt>
      <trkpt lat="44.21699" lon="0.68609">
        <ele>165.96</ele>
        <time>2018-08-02T07:48:09Z</time>
      </trkpt>
      <trkpt lat="44.217" lon="0.68597">
        <ele>166.45</ele>
        <time>2018-08-02T07:48:20Z</time>
      </trkpt>
      <trkpt lat="44.21707" lon="0.68583">
        <ele>167.41</ele>
        <time>2018-08-02T07:48:36Z</time>
      </trkpt>
      <trkpt lat="44.21712" lon="0.68573">
        <ele>167.41</ele>
        <time>2018-08-02T07:48:47Z</time>
      </trkpt>
      <trkpt lat="44.21714" lon="0.68568">
        <ele>167.41</ele>
        <time>2018-08-02T07:48:51Z</time>
      </trkpt>
      <trkpt lat="44.21715" lon="0.68547">
        <ele>167.41</ele>
        <time>2018-08-02T07:49:07Z</time>
      </trkpt>
      <trkpt lat="44.21712" lon="0.68525">
        <ele>167.41</ele>
        <time>2018-08-02T07:49:24Z</time>
      </trkpt>
      <trkpt lat="44.21712" lon="0.68509">
        <ele>167.89</ele>
        <time>2018-08-02T07:49:38Z</time>
      </trkpt>
      <trkpt lat="44.21713" lon="0.68504">
        <ele>167.89</ele>
        <time>2018-08-02T07:49:44Z</time>
      </trkpt>
      <trkpt lat="44.2172" lon="0.68493">
        <ele>168.37</ele>
        <time>2018-08-02T07:49:58Z</time>
      </trkpt>
      <trkpt lat="44.21725" lon="0.68489">
        <ele>168.37</ele>
        <time>2018-08-02T07:50:05Z</time>
      </trkpt>
      <trkpt lat="44.2174" lon="0.68484">
        <ele>168.37</ele>
        <time>2018-08-02T07:50:22Z</time>
      </trkpt>
      <trkpt lat="44.21753" lon="0.68479">
        <ele>166.93</ele>
        <time>2018-08-02T07:50:37Z</time>
      </trkpt>
      <trkpt lat="44.21758" lon="0.68478">
        <ele>166.45</ele>
        <time>2018-08-02T07:50:44Z</time>
      </trkpt>
      <trkpt lat="44.21767" lon="0.68478">
        <ele>166.45</ele>
        <time>2018-08-02T07:50:52Z</time>
      </trkpt>
      <trkpt lat="44.21781" lon="0.68478">
        <ele>165.96</ele>
        <time>2018-08-02T07:51:08Z</time>
      </trkpt>
      <trkpt lat="44.21786" lon="0.68475">
        <ele>165.48</ele>
        <time>2018-08-02T07:51:15Z</time>
      </trkpt>
      <trkpt lat="44.21797" lon="0.68464">
        <ele>165</ele>
        <time>2018-08-02T07:51:31Z</time>
      </trkpt>
      <trkpt lat="44.21801" lon="0.6845">
        <ele>164.04</ele>
        <time>2018-08-02T07:51:43Z</time>
      </trkpt>
      <trkpt lat="44.21798" lon="0.68438">
        <ele>164.04</ele>
        <time>2018-08-02T07:51:56Z</time>
      </trkpt>
      <trkpt lat="44.21802" lon="0.68424">
        <ele>165.48</ele>
        <time>2018-08-02T07:52:04Z</time>
      </trkpt>
      <trkpt lat="44.21798" lon="0.68407">
        <ele>165.96</ele>
        <time>2018-08-02T07:52:18Z</time>
      </trkpt>
      <trkpt lat="44.21798" lon="0.68405">
        <ele>165.96</ele>
        <time>2018-08-02T07:52:19Z</time>
      </trkpt>
      <trkpt lat="44.21792" lon="0.68385">
        <ele>166.45</ele>
        <time>2018-08-02T07:52:34Z</time>
      </trkpt>
      <trkpt lat="44.21786" lon="0.68367">
        <ele>167.41</ele>
        <time>2018-08-02T07:52:48Z</time>
      </trkpt>
      <trkpt lat="44.21781" lon="0.68353">
        <ele>167.89</ele>
        <time>2018-08-02T07:53:00Z</time>
      </trkpt>
      <trkpt lat="44.21777" lon="0.6834">
        <ele>167.89</ele>
        <time>2018-08-02T07:53:14Z</time>
      </trkpt>
      <trkpt lat="44.21776" lon="0.68335">
        <ele>167.89</ele>
        <time>2018-08-02T07:53:19Z</time>
      </trkpt>
      <trkpt lat="44.21776" lon="0.6833">
        <ele>167.89</ele>
        <time>2018-08-02T07:53:22Z</time>
      </trkpt>
      <trkpt lat="44.21776" lon="0.6832">
        <ele>167.89</ele>
        <time>2018-08-02T07:53:29Z</time>
      </trkpt>
      <trkpt lat="44.21783" lon="0.68302">
        <ele>166.45</ele>
        <time>2018-08-02T07:53:43Z</time>
      </trkpt>
      <trkpt lat="44.21793" lon="0.68285">
        <ele>165.48</ele>
        <time>2018-08-02T07:53:59Z</time>
      </trkpt>
      <trkpt lat="44.21799" lon="0.68279">
        <ele>165.48</ele>
        <time>2018-08-02T07:54:07Z</time>
      </trkpt>
      <trkpt lat="44.21813" lon="0.68263">
        <ele>165</ele>
        <time>2018-08-02T07:54:25Z</time>
      </trkpt>
      <trkpt lat="44.21825" lon="0.68252">
        <ele>164.52</ele>
        <time>2018-08-02T07:54:40Z</time>
      </trkpt>
      <trkpt lat="44.21828" lon="0.6825">
        <ele>164.52</ele>
        <time>2018-08-02T07:54:44Z</time>
      </trkpt>
      <trkpt lat="44.21836" lon="0.68244">
        <ele>164.04</ele>
        <time>2018-08-02T07:54:54Z</time>
      </trkpt>
      <trkpt lat="44.21845" lon="0.68235">
        <ele>164.04</ele>
        <time>2018-08-02T07:55:03Z</time>
      </trkpt>
      <trkpt lat="44.2185" lon="0.68232">
        <ele>163.56</ele>
        <time>2018-08-02T07:55:08Z</time>
      </trkpt>
      <trkpt lat="44.21861" lon="0.68218">
        <ele>163.08</ele>
        <time>2018-08-02T07:55:24Z</time>
      </trkpt>
      <trkpt lat="44.21872" lon="0.68206">
        <ele>162.12</ele>
        <time>2018-08-02T07:55:39Z</time>
      </trkpt>
      <trkpt lat="44.21884" lon="0.68194">
        <ele>161.64</ele>
        <time>2018-08-02T07:55:55Z</time>
      </trkpt>
      <trkpt lat="44.21896" lon="0.68181">
        <ele>161.64</ele>
        <time>2018-08-02T07:56:11Z</time>
      </trkpt>
      <trkpt lat="44.21904" lon="0.6817">
        <ele>161.16</ele>
        <time>2018-08-02T07:56:24Z</time>
      </trkpt>
      <trkpt lat="44.21916" lon="0.68157">
        <ele>160.2</ele>
        <time>2018-08-02T07:56:40Z</time>
      </trkpt>
      <trkpt lat="44.21923" lon="0.68148">
        <ele>159.72</ele>
        <time>2018-08-02T07:56:54Z</time>
      </trkpt>
      <trkpt lat="44.21928" lon="0.68144">
        <ele>159.72</ele>
        <time>2018-08-02T07:57:09Z</time>
      </trkpt>
      <trkpt lat="44.21932" lon="0.6813">
        <ele>159.24</ele>
        <time>2018-08-02T07:57:25Z</time>
      </trkpt>
      <trkpt lat="44.21933" lon="0.68125">
        <ele>159.24</ele>
        <time>2018-08-02T07:57:29Z</time>
      </trkpt>
      <trkpt lat="44.21935" lon="0.68111">
        <ele>159.24</ele>
        <time>2018-08-02T07:57:42Z</time>
      </trkpt>
      <trkpt lat="44.21934" lon="0.68093">
        <ele>159.24</ele>
        <time>2018-08-02T07:57:55Z</time>
      </trkpt>
      <trkpt lat="44.21937" lon="0.68072">
        <ele>158.75</ele>
        <time>2018-08-02T07:58:10Z</time>
      </trkpt>
      <trkpt lat="44.2193" lon="0.68066">
        <ele>158.75</ele>
        <time>2018-08-02T07:58:21Z</time>
      </trkpt>
      <trkpt lat="44.21924" lon="0.68055">
        <ele>158.27</ele>
        <time>2018-08-02T07:58:38Z</time>
      </trkpt>
      <trkpt lat="44.21918" lon="0.68052">
        <ele>157.79</ele>
        <time>2018-08-02T07:58:56Z</time>
      </trkpt>
      <trkpt lat="44.21915" lon="0.68048">
        <ele>157.79</ele>
        <time>2018-08-02T07:59:11Z</time>
      </trkpt>
      <trkpt lat="44.21918" lon="0.68046">
        <ele>158.27</ele>
        <time>2018-08-02T07:59:26Z</time>
      </trkpt>
      <trkpt lat="44.21915" lon="0.68042">
        <ele>157.31</ele>
        <time>2018-08-02T07:59:41Z</time>
      </trkpt>
      <trkpt lat="44.21906" lon="0.68039">
        <ele>156.35</ele>
        <time>2018-08-02T07:59:56Z</time>
      </trkpt>
      <trkpt lat="44.219" lon="0.68027">
        <ele>154.91</ele>
        <time>2018-08-02T08:00:09Z</time>
      </trkpt>
      <trkpt lat="44.21892" lon="0.68017">
        <ele>152.99</ele>
        <time>2018-08-02T08:00:25Z</time>
      </trkpt>
      <trkpt lat="44.21887" lon="0.68007">
        <ele>150.58</ele>
        <time>2018-08-02T08:00:38Z</time>
      </trkpt>
      <trkpt lat="44.21879" lon="0.68005">
        <ele>150.58</ele>
        <time>2018-08-02T08:00:50Z</time>
      </trkpt>
      <trkpt lat="44.21868" lon="0.68">
        <ele>150.58</ele>
        <time>2018-08-02T08:01:06Z</time>
      </trkpt>
      <trkpt lat="44.21855" lon="0.67991">
        <ele>151.54</ele>
        <time>2018-08-02T08:01:22Z</time>
      </trkpt>
      <trkpt lat="44.21843" lon="0.67984">
        <ele>152.51</ele>
        <time>2018-08-02T08:01:36Z</time>
      </trkpt>
      <trkpt lat="44.21837" lon="0.67975">
        <ele>152.51</ele>
        <time>2018-08-02T08:02:07Z</time>
      </trkpt>
      <trkpt lat="44.21834" lon="0.67972">
        <ele>152.51</ele>
        <time>2018-08-02T08:02:34Z</time>
      </trkpt>
      <trkpt lat="44.21831" lon="0.67977">
        <ele>152.51</ele>
        <time>2018-08-02T08:03:00Z</time>
      </trkpt>
      <trkpt lat="44.21828" lon="0.67981">
        <ele>152.51</ele>
        <time>2018-08-02T08:03:33Z</time>
      </trkpt>
      <trkpt lat="44.2182" lon="0.67982">
        <ele>153.47</ele>
        <time>2018-08-02T08:03:48Z</time>
      </trkpt>
      <trkpt lat="44.21812" lon="0.67974">
        <ele>153.47</ele>
        <time>2018-08-02T08:04:04Z</time>
      </trkpt>
      <trkpt lat="44.2181" lon="0.67961">
        <ele>153.47</ele>
        <time>2018-08-02T08:04:18Z</time>
      </trkpt>
      <trkpt lat="44.21806" lon="0.67958">
        <ele>152.03</ele>
        <time>2018-08-02T08:04:24Z</time>
      </trkpt>
      <trkpt lat="44.21791" lon="0.67951">
        <ele>151.06</ele>
        <time>2018-08-02T08:04:38Z</time>
      </trkpt>
      <trkpt lat="44.21786" lon="0.67945">
        <ele>150.58</ele>
        <time>2018-08-02T08:04:51Z</time>
      </trkpt>
      <trkpt lat="44.21774" lon="0.67932">
        <ele>150.1</ele>
        <time>2018-08-02T08:05:07Z</time>
      </trkpt>
      <trkpt lat="44.21765" lon="0.6792">
        <ele>149.62</ele>
        <time>2018-08-02T08:05:24Z</time>
      </trkpt>
      <trkpt lat="44.21761" lon="0.67915">
        <ele>149.14</ele>
        <time>2018-08-02T08:05:34Z</time>
      </trkpt>
      <trkpt lat="44.21749" lon="0.67907">
        <ele>149.14</ele>
        <time>2018-08-02T08:05:49Z</time>
      </trkpt>
      <trkpt lat="44.21747" lon="0.67904">
        <ele>150.58</ele>
        <time>2018-08-02T08:05:53Z</time>
      </trkpt>
      <trkpt lat="44.21739" lon="0.67894">
        <ele>151.06</ele>
        <time>2018-08-02T08:06:05Z</time>
      </trkpt>
      <trkpt lat="44.21725" lon="0.67879">
        <ele>152.99</ele>
        <time>2018-08-02T08:06:19Z</time>
      </trkpt>
      <trkpt lat="44.21714" lon="0.67873">
        <ele>153.47</ele>
        <time>2018-08-02T08:06:36Z</time>
      </trkpt>
      <trkpt lat="44.21705" lon="0.6786">
        <ele>153.47</ele>
        <time>2018-08-02T08:06:53Z</time>
      </trkpt>
      <trkpt lat="44.21695" lon="0.67855">
        <ele>151.54</ele>
        <time>2018-08-02T08:07:08Z</time>
      </trkpt>
      <trkpt lat="44.21686" lon="0.67864">
        <ele>151.54</ele>
        <time>2018-08-02T08:07:22Z</time>
      </trkpt>
      <trkpt lat="44.2168" lon="0.67854">
        <ele>150.58</ele>
        <time>2018-08-02T08:07:35Z</time>
      </trkpt>
      <trkpt lat="44.2167" lon="0.67843">
        <ele>152.03</ele>
        <time>2018-08-02T08:07:48Z</time>
      </trkpt>
      <trkpt lat="44.21657" lon="0.67837">
        <ele>153.47</ele>
        <time>2018-08-02T08:08:02Z</time>
      </trkpt>
      <trkpt lat="44.21648" lon="0.67831">
        <ele>154.91</ele>
        <time>2018-08-02T08:08:16Z</time>
      </trkpt>
      <trkpt lat="44.21636" lon="0.67832">
        <ele>155.39</ele>
        <time>2018-08-02T08:08:29Z</time>
      </trkpt>
      <trkpt lat="44.2162" lon="0.67834">
        <ele>155.39</ele>
        <time>2018-08-02T08:08:43Z</time>
      </trkpt>
      <trkpt lat="44.21607" lon="0.6783">
        <ele>153.95</ele>
        <time>2018-08-02T08:08:57Z</time>
      </trkpt>
      <trkpt lat="44.21594" lon="0.67821">
        <ele>152.51</ele>
        <time>2018-08-02T08:09:12Z</time>
      </trkpt>
      <trkpt lat="44.2159" lon="0.67816">
        <ele>152.51</ele>
        <time>2018-08-02T08:09:18Z</time>
      </trkpt>
      <trkpt lat="44.21579" lon="0.67807">
        <ele>152.03</ele>
        <time>2018-08-02T08:09:32Z</time>
      </trkpt>
      <trkpt lat="44.21567" lon="0.67808">
        <ele>151.54</ele>
        <time>2018-08-02T08:09:48Z</time>
      </trkpt>
      <trkpt lat="44.21565" lon="0.67811">
        <ele>151.54</ele>
        <time>2018-08-02T08:09:51Z</time>
      </trkpt>
      <trkpt lat="44.21553" lon="0.67826">
        <ele>152.03</ele>
        <time>2018-08-02T08:10:06Z</time>
      </trkpt>
      <trkpt lat="44.21544" lon="0.67839">
        <ele>152.99</ele>
        <time>2018-08-02T08:10:19Z</time>
      </trkpt>
      <trkpt lat="44.21534" lon="0.67852">
        <ele>152.99</ele>
        <time>2018-08-02T08:10:35Z</time>
      </trkpt>
      <trkpt lat="44.21522" lon="0.67865">
        <ele>153.95</ele>
        <time>2018-08-02T08:10:52Z</time>
      </trkpt>
      <trkpt lat="44.21519" lon="0.67867">
        <ele>153.95</ele>
        <time>2018-08-02T08:10:55Z</time>
      </trkpt>
      <trkpt lat="44.21506" lon="0.67878">
        <ele>153.95</ele>
        <time>2018-08-02T08:11:12Z</time>
      </trkpt>
      <trkpt lat="44.21491" lon="0.67887">
        <ele>154.43</ele>
        <time>2018-08-02T08:11:28Z</time>
      </trkpt>
      <trkpt lat="44.21473" lon="0.67901">
        <ele>154.91</ele>
        <time>2018-08-02T08:11:48Z</time>
      </trkpt>
      <trkpt lat="44.21471" lon="0.67902">
        <ele>154.91</ele>
        <time>2018-08-02T08:11:50Z</time>
      </trkpt>
      <trkpt lat="44.21459" lon="0.67914">
        <ele>153.95</ele>
        <time>2018-08-02T08:12:06Z</time>
      </trkpt>
      <trkpt lat="44.21447" lon="0.67919">
        <ele>152.99</ele>
        <time>2018-08-02T08:12:22Z</time>
      </trkpt>
      <trkpt lat="44.21442" lon="0.67916">
        <ele>152.99</ele>
        <time>2018-08-02T08:12:37Z</time>
      </trkpt>
      <trkpt lat="44.2144" lon="0.67913">
        <ele>152.99</ele>
        <time>2018-08-02T08:12:54Z</time>
      </trkpt>
      <trkpt lat="44.21428" lon="0.67886">
        <ele>152.51</ele>
        <time>2018-08-02T08:13:15Z</time>
      </trkpt>
      <trkpt lat="44.21418" lon="0.67866">
        <ele>152.03</ele>
        <time>2018-08-02T08:13:33Z</time>
      </trkpt>
      <trkpt lat="44.21408" lon="0.67844">
        <ele>151.54</ele>
        <time>2018-08-02T08:13:52Z</time>
      </trkpt>
      <trkpt lat="44.21406" lon="0.67839">
        <ele>151.54</ele>
        <time>2018-08-02T08:13:57Z</time>
      </trkpt>
      <trkpt lat="44.21398" lon="0.67823">
        <ele>151.54</ele>
        <time>2018-08-02T08:14:10Z</time>
      </trkpt>
      <trkpt lat="44.2139" lon="0.67798">
        <ele>151.54</ele>
        <time>2018-08-02T08:14:28Z</time>
      </trkpt>
      <trkpt lat="44.21382" lon="0.67778">
        <ele>151.06</ele>
        <time>2018-08-02T08:14:44Z</time>
      </trkpt>
      <trkpt lat="44.21378" lon="0.67764">
        <ele>151.06</ele>
        <time>2018-08-02T08:14:54Z</time>
      </trkpt>
      <trkpt lat="44.21367" lon="0.67737">
        <ele>151.06</ele>
        <time>2018-08-02T08:15:13Z</time>
      </trkpt>
      <trkpt lat="44.21362" lon="0.67722">
        <ele>151.06</ele>
        <time>2018-08-02T08:15:24Z</time>
      </trkpt>
      <trkpt lat="44.21359" lon="0.67703">
        <ele>151.06</ele>
        <time>2018-08-02T08:15:40Z</time>
      </trkpt>
      <trkpt lat="44.2135" lon="0.67682">
        <ele>151.06</ele>
        <time>2018-08-02T08:15:56Z</time>
      </trkpt>
      <trkpt lat="44.21343" lon="0.67661">
        <ele>151.06</ele>
        <time>2018-08-02T08:16:13Z</time>
      </trkpt>
      <trkpt lat="44.21338" lon="0.67634">
        <ele>152.51</ele>
        <time>2018-08-02T08:16:30Z</time>
      </trkpt>
      <trkpt lat="44.21335" lon="0.67615">
        <ele>152.51</ele>
        <time>2018-08-02T08:16:48Z</time>
      </trkpt>
      <trkpt lat="44.21335" lon="0.67615">
        <ele>152.51</ele>
        <time>2018-08-02T08:16:49Z</time>
      </trkpt>
      <trkpt lat="44.21332" lon="0.67606">
        <ele>152.51</ele>
        <time>2018-08-02T08:16:56Z</time>
      </trkpt>
      <trkpt lat="44.21328" lon="0.67577">
        <ele>152.51</ele>
        <time>2018-08-02T08:17:16Z</time>
      </trkpt>
      <trkpt lat="44.21327" lon="0.67572">
        <ele>152.51</ele>
        <time>2018-08-02T08:17:21Z</time>
      </trkpt>
      <trkpt lat="44.21326" lon="0.67567">
        <ele>152.51</ele>
        <time>2018-08-02T08:17:25Z</time>
      </trkpt>
      <trkpt lat="44.21317" lon="0.6755">
        <ele>152.51</ele>
        <time>2018-08-02T08:17:41Z</time>
      </trkpt>
      <trkpt lat="44.21314" lon="0.67543">
        <ele>152.51</ele>
        <time>2018-08-02T08:17:56Z</time>
      </trkpt>
      <trkpt lat="44.21315" lon="0.67542">
        <ele>152.51</ele>
        <time>2018-08-02T08:18:07Z</time>
      </trkpt>
      <trkpt lat="44.21316" lon="0.67543">
        <ele>151.06</ele>
        <time>2018-08-02T08:18:18Z</time>
      </trkpt>
      <trkpt lat="44.21316" lon="0.67543">
        <ele>149.62</ele>
        <time>2018-08-02T08:18:45Z</time>
      </trkpt>
      <trkpt lat="44.21316" lon="0.67543">
        <ele>153.47</ele>
        <time>2018-08-02T08:18:46Z</time>
      </trkpt>
      <trkpt lat="44.21312" lon="0.67539">
        <ele>152.03</ele>
        <time>2018-08-02T08:19:10Z</time>
      </trkpt>
      <trkpt lat="44.213" lon="0.67528">
        <ele>151.54</ele>
        <time>2018-08-02T08:19:28Z</time>
      </trkpt>
      <trkpt lat="44.21293" lon="0.6752">
        <ele>151.54</ele>
        <time>2018-08-02T08:19:37Z</time>
      </trkpt>
      <trkpt lat="44.21281" lon="0.67506">
        <ele>150.58</ele>
        <time>2018-08-02T08:19:54Z</time>
      </trkpt>
      <trkpt lat="44.21266" lon="0.6749">
        <ele>150.1</ele>
        <time>2018-08-02T08:20:11Z</time>
      </trkpt>
      <trkpt lat="44.21256" lon="0.67479">
        <ele>149.62</ele>
        <time>2018-08-02T08:20:26Z</time>
      </trkpt>
      <trkpt lat="44.21247" lon="0.67469">
        <ele>149.62</ele>
        <time>2018-08-02T08:20:39Z</time>
      </trkpt>
      <trkpt lat="44.21238" lon="0.67454">
        <ele>150.1</ele>
        <time>2018-08-02T08:20:54Z</time>
      </trkpt>
      <trkpt lat="44.21229" lon="0.67432">
        <ele>150.1</ele>
        <time>2018-08-02T08:21:11Z</time>
      </trkpt>
      <trkpt lat="44.21223" lon="0.67413">
        <ele>150.1</ele>
        <time>2018-08-02T08:21:27Z</time>
      </trkpt>
      <trkpt lat="44.21222" lon="0.67408">
        <ele>150.1</ele>
        <time>2018-08-02T08:21:31Z</time>
      </trkpt>
      <trkpt lat="44.21218" lon="0.67392">
        <ele>150.1</ele>
        <time>2018-08-02T08:21:46Z</time>
      </trkpt>
      <trkpt lat="44.21213" lon="0.67371">
        <ele>151.06</ele>
        <time>2018-08-02T08:22:03Z</time>
      </trkpt>
      <trkpt lat="44.21209" lon="0.67345">
        <ele>151.06</ele>
        <time>2018-08-02T08:22:22Z</time>
      </trkpt>
      <trkpt lat="44.21205" lon="0.67325">
        <ele>151.06</ele>
        <time>2018-08-02T08:22:38Z</time>
      </trkpt>
      <trkpt lat="44.212" lon="0.67307">
        <ele>151.06</ele>
        <time>2018-08-02T08:22:53Z</time>
      </trkpt>
      <trkpt lat="44.21195" lon="0.67289">
        <ele>150.1</ele>
        <time>2018-08-02T08:23:11Z</time>
      </trkpt>
      <trkpt lat="44.21192" lon="0.67268">
        <ele>150.1</ele>
        <time>2018-08-02T08:23:27Z</time>
      </trkpt>
      <trkpt lat="44.21187" lon="0.67248">
        <ele>150.1</ele>
        <time>2018-08-02T08:23:42Z</time>
      </trkpt>
      <trkpt lat="44.21184" lon="0.67227">
        <ele>150.1</ele>
        <time>2018-08-02T08:23:59Z</time>
      </trkpt>
      <trkpt lat="44.2118" lon="0.67213">
        <ele>151.54</ele>
        <time>2018-08-02T08:24:13Z</time>
      </trkpt>
      <trkpt lat="44.21175" lon="0.67195">
        <ele>151.54</ele>
        <time>2018-08-02T08:24:30Z</time>
      </trkpt>
      <trkpt lat="44.21168" lon="0.67179">
        <ele>152.03</ele>
        <time>2018-08-02T08:24:47Z</time>
      </trkpt>
      <trkpt lat="44.21162" lon="0.67162">
        <ele>152.99</ele>
        <time>2018-08-02T08:25:04Z</time>
      </trkpt>
      <trkpt lat="44.21155" lon="0.67147">
        <ele>154.43</ele>
        <time>2018-08-02T08:25:21Z</time>
      </trkpt>
      <trkpt lat="44.21151" lon="0.67138">
        <ele>154.43</ele>
        <time>2018-08-02T08:25:38Z</time>
      </trkpt>
      <trkpt lat="44.21149" lon="0.67129">
        <ele>154.91</ele>
        <time>2018-08-02T08:25:53Z</time>
      </trkpt>
      <trkpt lat="44.21151" lon="0.67129">
        <ele>154.91</ele>
        <time>2018-08-02T08:26:12Z</time>
      </trkpt>
      <trkpt lat="44.21155" lon="0.67121">
        <ele>154.91</ele>
        <time>2018-08-02T08:26:29Z</time>
      </trkpt>
      <trkpt lat="44.21163" lon="0.67108">
        <ele>154.91</ele>
        <time>2018-08-02T08:26:46Z</time>
      </trkpt>
      <trkpt lat="44.21173" lon="0.67095">
        <ele>154.91</ele>
        <time>2018-08-02T08:27:01Z</time>
      </trkpt>
      <trkpt lat="44.21183" lon="0.67083">
        <ele>154.91</ele>
        <time>2018-08-02T08:27:15Z</time>
      </trkpt>
      <trkpt lat="44.21195" lon="0.67069">
        <ele>154.91</ele>
        <time>2018-08-02T08:27:32Z</time>
      </trkpt>
      <trkpt lat="44.212" lon="0.67064">
        <ele>154.91</ele>
        <time>2018-08-02T08:27:39Z</time>
      </trkpt>
      <trkpt lat="44.21207" lon="0.67048">
        <ele>154.91</ele>
        <time>2018-08-02T08:27:53Z</time>
      </trkpt>
      <trkpt lat="44.21212" lon="0.6702">
        <ele>154.91</ele>
        <time>2018-08-02T08:28:11Z</time>
      </trkpt>
      <trkpt lat="44.21215" lon="0.66998">
        <ele>154.91</ele>
        <time>2018-08-02T08:28:27Z</time>
      </trkpt>
      <trkpt lat="44.21216" lon="0.66973">
        <ele>154.91</ele>
        <time>2018-08-02T08:28:45Z</time>
      </trkpt>
      <trkpt lat="44.21217" lon="0.66951">
        <ele>154.91</ele>
        <time>2018-08-02T08:29:02Z</time>
      </trkpt>
      <trkpt lat="44.21216" lon="0.66928">
        <ele>154.91</ele>
        <time>2018-08-02T08:29:18Z</time>
      </trkpt>
      <trkpt lat="44.21217" lon="0.66906">
        <ele>154.91</ele>
        <time>2018-08-02T08:29:36Z</time>
      </trkpt>
      <trkpt lat="44.21218" lon="0.66886">
        <ele>154.91</ele>
        <time>2018-08-02T08:29:52Z</time>
      </trkpt>
      <trkpt lat="44.2122" lon="0.66883">
        <ele>154.91</ele>
        <time>2018-08-02T08:29:56Z</time>
      </trkpt>
      <trkpt lat="44.21233" lon="0.66865">
        <ele>153.95</ele>
        <time>2018-08-02T08:30:14Z</time>
      </trkpt>
      <trkpt lat="44.2125" lon="0.66851">
        <ele>153.47</ele>
        <time>2018-08-02T08:30:31Z</time>
      </trkpt>
      <trkpt lat="44.21264" lon="0.66836">
        <ele>152.99</ele>
        <time>2018-08-02T08:30:50Z</time>
      </trkpt>
      <trkpt lat="44.21274" lon="0.6682">
        <ele>152.51</ele>
        <time>2018-08-02T08:31:05Z</time>
      </trkpt>
      <trkpt lat="44.21288" lon="0.66824">
        <ele>151.06</ele>
        <time>2018-08-02T08:31:21Z</time>
      </trkpt>
      <trkpt lat="44.2129" lon="0.66828">
        <ele>151.06</ele>
        <time>2018-08-02T08:31:25Z</time>
      </trkpt>
      <trkpt lat="44.21292" lon="0.66835">
        <ele>151.06</ele>
        <time>2018-08-02T08:31:30Z</time>
      </trkpt>
      <trkpt lat="44.21311" lon="0.66851">
        <ele>150.58</ele>
        <time>2018-08-02T08:31:51Z</time>
      </trkpt>
      <trkpt lat="44.2133" lon="0.66859">
        <ele>150.58</ele>
        <time>2018-08-02T08:32:10Z</time>
      </trkpt>
      <trkpt lat="44.21343" lon="0.66865">
        <ele>150.1</ele>
        <time>2018-08-02T08:32:27Z</time>
      </trkpt>
      <trkpt lat="44.21346" lon="0.66839">
        <ele>150.1</ele>
        <time>2018-08-02T08:32:46Z</time>
      </trkpt>
      <trkpt lat="44.21346" lon="0.66816">
        <ele>150.1</ele>
        <time>2018-08-02T08:33:05Z</time>
      </trkpt>
      <trkpt lat="44.21348" lon="0.66788">
        <ele>150.1</ele>
        <time>2018-08-02T08:33:24Z</time>
      </trkpt>
      <trkpt lat="44.2135" lon="0.66763">
        <ele>150.1</ele>
        <time>2018-08-02T08:33:43Z</time>
      </trkpt>
      <trkpt lat="44.21353" lon="0.66737">
        <ele>150.1</ele>
        <time>2018-08-02T08:34:02Z</time>
      </trkpt>
      <trkpt lat="44.21355" lon="0.66712">
        <ele>150.1</ele>
        <time>2018-08-02T08:34:20Z</time>
      </trkpt>
      <trkpt lat="44.21355" lon="0.66708">
        <ele>150.1</ele>
        <time>2018-08-02T08:34:35Z</time>
      </trkpt>
      <trkpt lat="44.21356" lon="0.66693">
        <ele>150.1</ele>
        <time>2018-08-02T08:34:50Z</time>
      </trkpt>
      <trkpt lat="44.21359" lon="0.66666">
        <ele>150.1</ele>
        <time>2018-08-02T08:35:10Z</time>
      </trkpt>
      <trkpt lat="44.21363" lon="0.66641">
        <ele>150.1</ele>
        <time>2018-08-02T08:35:28Z</time>
      </trkpt>
      <trkpt lat="44.21368" lon="0.66614">
        <ele>150.1</ele>
        <time>2018-08-02T08:35:48Z</time>
      </trkpt>
      <trkpt lat="44.21374" lon="0.66587">
        <ele>150.1</ele>
        <time>2018-08-02T08:36:08Z</time>
      </trkpt>
      <trkpt lat="44.2138" lon="0.66563">
        <ele>150.1</ele>
        <time>2018-08-02T08:36:25Z</time>
      </trkpt>
      <trkpt lat="44.21386" lon="0.66536">
        <ele>150.1</ele>
        <time>2018-08-02T08:36:44Z</time>
      </trkpt>
      <trkpt lat="44.21389" lon="0.66523">
        <ele>150.1</ele>
        <time>2018-08-02T08:36:54Z</time>
      </trkpt>
      <trkpt lat="44.21396" lon="0.66496">
        <ele>150.1</ele>
        <time>2018-08-02T08:37:13Z</time>
      </trkpt>
      <trkpt lat="44.21403" lon="0.66471">
        <ele>150.1</ele>
        <time>2018-08-02T08:37:31Z</time>
      </trkpt>
      <trkpt lat="44.21405" lon="0.6646">
        <ele>150.1</ele>
        <time>2018-08-02T08:37:39Z</time>
      </trkpt>
      <trkpt lat="44.21405" lon="0.66455">
        <ele>150.1</ele>
        <time>2018-08-02T08:37:43Z</time>
      </trkpt>
      <trkpt lat="44.21409" lon="0.66433">
        <ele>150.1</ele>
        <time>2018-08-02T08:38:00Z</time>
      </trkpt>
      <trkpt lat="44.21411" lon="0.66424">
        <ele>150.1</ele>
        <time>2018-08-02T08:38:07Z</time>
      </trkpt>
      <trkpt lat="44.21413" lon="0.66414">
        <ele>150.1</ele>
        <time>2018-08-02T08:38:14Z</time>
      </trkpt>
      <trkpt lat="44.21418" lon="0.66398">
        <ele>150.1</ele>
        <time>2018-08-02T08:38:26Z</time>
      </trkpt>
      <trkpt lat="44.21424" lon="0.66384">
        <ele>150.1</ele>
        <time>2018-08-02T08:38:39Z</time>
      </trkpt>
      <trkpt lat="44.21426" lon="0.66375">
        <ele>149.62</ele>
        <time>2018-08-02T08:38:51Z</time>
      </trkpt>
      <trkpt lat="44.2143" lon="0.66362">
        <ele>149.14</ele>
        <time>2018-08-02T08:39:04Z</time>
      </trkpt>
      <trkpt lat="44.21437" lon="0.66347">
        <ele>148.66</ele>
        <time>2018-08-02T08:39:20Z</time>
      </trkpt>
      <trkpt lat="44.21444" lon="0.66334">
        <ele>148.66</ele>
        <time>2018-08-02T08:39:34Z</time>
      </trkpt>
      <trkpt lat="44.21451" lon="0.66319">
        <ele>148.18</ele>
        <time>2018-08-02T08:39:48Z</time>
      </trkpt>
      <trkpt lat="44.21459" lon="0.66308">
        <ele>147.7</ele>
        <time>2018-08-02T08:40:01Z</time>
      </trkpt>
      <trkpt lat="44.21471" lon="0.66301">
        <ele>147.7</ele>
        <time>2018-08-02T08:40:14Z</time>
      </trkpt>
      <trkpt lat="44.21482" lon="0.66291">
        <ele>147.7</ele>
        <time>2018-08-02T08:40:28Z</time>
      </trkpt>
      <trkpt lat="44.21491" lon="0.66279">
        <ele>146.26</ele>
        <time>2018-08-02T08:40:42Z</time>
      </trkpt>
      <trkpt lat="44.21498" lon="0.66276">
        <ele>145.78</ele>
        <time>2018-08-02T08:40:49Z</time>
      </trkpt>
      <trkpt lat="44.21507" lon="0.66269">
        <ele>145.3</ele>
        <time>2018-08-02T08:41:02Z</time>
      </trkpt>
      <trkpt lat="44.21518" lon="0.66265">
        <ele>142.89</ele>
        <time>2018-08-02T08:41:19Z</time>
      </trkpt>
      <trkpt lat="44.21527" lon="0.66263">
        <ele>141.45</ele>
        <time>2018-08-02T08:41:35Z</time>
      </trkpt>
      <trkpt lat="44.21534" lon="0.66255">
        <ele>139.53</ele>
        <time>2018-08-02T08:41:48Z</time>
      </trkpt>
      <trkpt lat="44.21539" lon="0.66246">
        <ele>138.57</ele>
        <time>2018-08-02T08:42:03Z</time>
      </trkpt>
      <trkpt lat="44.21538" lon="0.66237">
        <ele>136.64</ele>
        <time>2018-08-02T08:42:15Z</time>
      </trkpt>
      <trkpt lat="44.21542" lon="0.66228">
        <ele>135.2</ele>
        <time>2018-08-02T08:42:28Z</time>
      </trkpt>
      <trkpt lat="44.21551" lon="0.66217">
        <ele>132.8</ele>
        <time>2018-08-02T08:42:45Z</time>
      </trkpt>
      <trkpt lat="44.21557" lon="0.66199">
        <ele>130.4</ele>
        <time>2018-08-02T08:43:02Z</time>
      </trkpt>
      <trkpt lat="44.21557" lon="0.66194">
        <ele>129.92</ele>
        <time>2018-08-02T08:43:06Z</time>
      </trkpt>
      <trkpt lat="44.21558" lon="0.66179">
        <ele>127.51</ele>
        <time>2018-08-02T08:43:19Z</time>
      </trkpt>
      <trkpt lat="44.2156" lon="0.66162">
        <ele>125.59</ele>
        <time>2018-08-02T08:43:35Z</time>
      </trkpt>
      <trkpt lat="44.21557" lon="0.66152">
        <ele>124.15</ele>
        <time>2018-08-02T08:43:46Z</time>
      </trkpt>
      <trkpt lat="44.2156" lon="0.66131">
        <ele>122.22</ele>
        <time>2018-08-02T08:44:02Z</time>
      </trkpt>
      <trkpt lat="44.21566" lon="0.66122">
        <ele>120.3</ele>
        <time>2018-08-02T08:44:17Z</time>
      </trkpt>
      <trkpt lat="44.21572" lon="0.66137">
        <ele>119.82</ele>
        <time>2018-08-02T08:44:29Z</time>
      </trkpt>
      <trkpt lat="44.21581" lon="0.66159">
        <ele>119.82</ele>
        <time>2018-08-02T08:44:46Z</time>
      </trkpt>
      <trkpt lat="44.21582" lon="0.66163">
        <ele>119.82</ele>
        <time>2018-08-02T08:44:49Z</time>
      </trkpt>
      <trkpt lat="44.21588" lon="0.66177">
        <ele>119.34</ele>
        <time>2018-08-02T08:45:01Z</time>
      </trkpt>
      <trkpt lat="44.21591" lon="0.66189">
        <ele>119.34</ele>
        <time>2018-08-02T08:45:10Z</time>
      </trkpt>
      <trkpt lat="44.21595" lon="0.66211">
        <ele>118.86</ele>
        <time>2018-08-02T08:45:26Z</time>
      </trkpt>
      <trkpt lat="44.21591" lon="0.66235">
        <ele>118.38</ele>
        <time>2018-08-02T08:45:44Z</time>
      </trkpt>
      <trkpt lat="44.21585" lon="0.66256">
        <ele>118.38</ele>
        <time>2018-08-02T08:45:59Z</time>
      </trkpt>
      <trkpt lat="44.21577" lon="0.66276">
        <ele>118.38</ele>
        <time>2018-08-02T08:46:15Z</time>
      </trkpt>
      <trkpt lat="44.21573" lon="0.66291">
        <ele>118.38</ele>
        <time>2018-08-02T08:46:28Z</time>
      </trkpt>
      <trkpt lat="44.2157" lon="0.66312">
        <ele>119.82</ele>
        <time>2018-08-02T08:46:42Z</time>
      </trkpt>
      <trkpt lat="44.21568" lon="0.66329">
        <ele>119.34</ele>
        <time>2018-08-02T08:46:54Z</time>
      </trkpt>
      <trkpt lat="44.21568" lon="0.66354">
        <ele>119.34</ele>
        <time>2018-08-02T08:47:11Z</time>
      </trkpt>
      <trkpt lat="44.21571" lon="0.66379">
        <ele>119.34</ele>
        <time>2018-08-02T08:47:28Z</time>
      </trkpt>
      <trkpt lat="44.21566" lon="0.66401">
        <ele>119.34</ele>
        <time>2018-08-02T08:47:45Z</time>
      </trkpt>
      <trkpt lat="44.21558" lon="0.66421">
        <ele>119.34</ele>
        <time>2018-08-02T08:48:01Z</time>
      </trkpt>
      <trkpt lat="44.21556" lon="0.66426">
        <ele>117.9</ele>
        <time>2018-08-02T08:48:05Z</time>
      </trkpt>
      <trkpt lat="44.2155" lon="0.66439">
        <ele>117.9</ele>
        <time>2018-08-02T08:48:17Z</time>
      </trkpt>
      <trkpt lat="44.21542" lon="0.66456">
        <ele>116.94</ele>
        <time>2018-08-02T08:48:35Z</time>
      </trkpt>
      <trkpt lat="44.21533" lon="0.66475">
        <ele>116.94</ele>
        <time>2018-08-02T08:48:51Z</time>
      </trkpt>
      <trkpt lat="44.21527" lon="0.66506">
        <ele>116.46</ele>
        <time>2018-08-02T08:49:11Z</time>
      </trkpt>
      <trkpt lat="44.21526" lon="0.66525">
        <ele>115.98</ele>
        <time>2018-08-02T08:49:26Z</time>
      </trkpt>
      <trkpt lat="44.2153" lon="0.66545">
        <ele>114.53</ele>
        <time>2018-08-02T08:49:42Z</time>
      </trkpt>
      <trkpt lat="44.21535" lon="0.66559">
        <ele>113.09</ele>
        <time>2018-08-02T08:49:56Z</time>
      </trkpt>
      <trkpt lat="44.21541" lon="0.66569">
        <ele>112.61</ele>
        <time>2018-08-02T08:50:06Z</time>
      </trkpt>
      <trkpt lat="44.21549" lon="0.66586">
        <ele>112.61</ele>
        <time>2018-08-02T08:50:22Z</time>
      </trkpt>
      <trkpt lat="44.21553" lon="0.66602">
        <ele>114.05</ele>
        <time>2018-08-02T08:50:38Z</time>
      </trkpt>
      <trkpt lat="44.2156" lon="0.66619">
        <ele>115.5</ele>
        <time>2018-08-02T08:50:56Z</time>
      </trkpt>
      <trkpt lat="44.21561" lon="0.66633">
        <ele>116.94</ele>
        <time>2018-08-02T08:51:11Z</time>
      </trkpt>
      <trkpt lat="44.21564" lon="0.66647">
        <ele>118.38</ele>
        <time>2018-08-02T08:51:25Z</time>
      </trkpt>
      <trkpt lat="44.21573" lon="0.66647">
        <ele>116.94</ele>
        <time>2018-08-02T08:51:41Z</time>
      </trkpt>
      <trkpt lat="44.21584" lon="0.66649">
        <ele>115.5</ele>
        <time>2018-08-02T08:51:56Z</time>
      </trkpt>
      <trkpt lat="44.21594" lon="0.6665">
        <ele>113.57</ele>
        <time>2018-08-02T08:52:11Z</time>
      </trkpt>
      <trkpt lat="44.21604" lon="0.66649">
        <ele>111.65</ele>
        <time>2018-08-02T08:52:27Z</time>
      </trkpt>
      <trkpt lat="44.21614" lon="0.66646">
        <ele>109.73</ele>
        <time>2018-08-02T08:52:42Z</time>
      </trkpt>
      <trkpt lat="44.21625" lon="0.66645">
        <ele>107.81</ele>
        <time>2018-08-02T08:52:57Z</time>
      </trkpt>
      <trkpt lat="44.21636" lon="0.66643">
        <ele>105.88</ele>
        <time>2018-08-02T08:53:12Z</time>
      </trkpt>
      <trkpt lat="44.21645" lon="0.66642">
        <ele>104.44</ele>
        <time>2018-08-02T08:53:25Z</time>
      </trkpt>
      <trkpt lat="44.21651" lon="0.66644">
        <ele>103.48</ele>
        <time>2018-08-02T08:53:31Z</time>
      </trkpt>
      <trkpt lat="44.21669" lon="0.66647">
        <ele>102.52</ele>
        <time>2018-08-02T08:53:50Z</time>
      </trkpt>
      <trkpt lat="44.21686" lon="0.66642">
        <ele>101.56</ele>
        <time>2018-08-02T08:54:08Z</time>
      </trkpt>
      <trkpt lat="44.21701" lon="0.66637">
        <ele>100.6</ele>
        <time>2018-08-02T08:54:25Z</time>
      </trkpt>
      <trkpt lat="44.21718" lon="0.66631">
        <ele>100.11</ele>
        <time>2018-08-02T08:54:42Z</time>
      </trkpt>
      <trkpt lat="44.21737" lon="0.66626">
        <ele>99.63</ele>
        <time>2018-08-02T08:55:01Z</time>
      </trkpt>
      <trkpt lat="44.21748" lon="0.66623">
        <ele>99.63</ele>
        <time>2018-08-02T08:55:16Z</time>
      </trkpt>
      <trkpt lat="44.21748" lon="0.66623">
        <ele>100.6</ele>
        <time>2018-08-02T08:55:25Z</time>
      </trkpt>
      <trkpt lat="44.21745" lon="0.66619">
        <ele>100.11</ele>
        <time>2018-08-02T08:55:54Z</time>
      </trkpt>
      <trkpt lat="44.21749" lon="0.6662">
        <ele>98.67</ele>
        <time>2018-08-02T08:56:20Z</time>
      </trkpt>
      <trkpt lat="44.21749" lon="0.6662">
        <ele>100.6</ele>
        <time>2018-08-02T08:56:22Z</time>
      </trkpt>
      <trkpt lat="44.21749" lon="0.66624">
        <ele>100.11</ele>
        <time>2018-08-02T08:56:47Z</time>
      </trkpt>
      <trkpt lat="44.21757" lon="0.66617">
        <ele>100.11</ele>
        <time>2018-08-02T08:57:04Z</time>
      </trkpt>
      <trkpt lat="44.21769" lon="0.6661">
        <ele>100.11</ele>
        <time>2018-08-02T08:57:18Z</time>
      </trkpt>
      <trkpt lat="44.21785" lon="0.66601">
        <ele>99.15</ele>
        <time>2018-08-02T08:57:33Z</time>
      </trkpt>
      <trkpt lat="44.21789" lon="0.66599">
        <ele>99.15</ele>
        <time>2018-08-02T08:57:37Z</time>
      </trkpt>
      <trkpt lat="44.21794" lon="0.66597">
        <ele>99.15</ele>
        <time>2018-08-02T08:57:41Z</time>
      </trkpt>
      <trkpt lat="44.21806" lon="0.6659">
        <ele>98.67</ele>
        <time>2018-08-02T08:57:55Z</time>
      </trkpt>
      <trkpt lat="44.21815" lon="0.66583">
        <ele>98.19</ele>
        <time>2018-08-02T08:58:04Z</time>
      </trkpt>
      <trkpt lat="44.21829" lon="0.66574">
        <ele>97.23</ele>
        <time>2018-08-02T08:58:20Z</time>
      </trkpt>
      <trkpt lat="44.21845" lon="0.66564">
        <ele>96.27</ele>
        <time>2018-08-02T08:58:37Z</time>
      </trkpt>
      <trkpt lat="44.21858" lon="0.66554">
        <ele>95.79</ele>
        <time>2018-08-02T08:58:52Z</time>
      </trkpt>
      <trkpt lat="44.21868" lon="0.66545">
        <ele>94.83</ele>
        <time>2018-08-02T08:59:05Z</time>
      </trkpt>
      <trkpt lat="44.21882" lon="0.66536">
        <ele>94.83</ele>
        <time>2018-08-02T08:59:19Z</time>
      </trkpt>
      <trkpt lat="44.21893" lon="0.66521">
        <ele>93.39</ele>
        <time>2018-08-02T08:59:34Z</time>
      </trkpt>
      <trkpt lat="44.21907" lon="0.6651">
        <ele>92.42</ele>
        <time>2018-08-02T08:59:49Z</time>
      </trkpt>
      <trkpt lat="44.2192" lon="0.665">
        <ele>92.42</ele>
        <time>2018-08-02T09:00:04Z</time>
      </trkpt>
      <trkpt lat="44.21932" lon="0.66492">
        <ele>91.46</ele>
        <time>2018-08-02T09:00:19Z</time>
      </trkpt>
      <trkpt lat="44.21941" lon="0.66485">
        <ele>90.98</ele>
        <time>2018-08-02T09:00:28Z</time>
      </trkpt>
      <trkpt lat="44.21956" lon="0.66477">
        <ele>90.5</ele>
        <time>2018-08-02T09:00:44Z</time>
      </trkpt>
      <trkpt lat="44.21963" lon="0.66474">
        <ele>90.02</ele>
        <time>2018-08-02T09:00:50Z</time>
      </trkpt>
      <trkpt lat="44.2197" lon="0.66467">
        <ele>90.02</ele>
        <time>2018-08-02T09:00:59Z</time>
      </trkpt>
      <trkpt lat="44.21985" lon="0.66459">
        <ele>89.06</ele>
        <time>2018-08-02T09:01:15Z</time>
      </trkpt>
      <trkpt lat="44.22" lon="0.6645">
        <ele>87.62</ele>
        <time>2018-08-02T09:01:30Z</time>
      </trkpt>
      <trkpt lat="44.2201" lon="0.6644">
        <ele>86.66</ele>
        <time>2018-08-02T09:01:42Z</time>
      </trkpt>
      <trkpt lat="44.2202" lon="0.66433">
        <ele>85.69</ele>
        <time>2018-08-02T09:01:54Z</time>
      </trkpt>
      <trkpt lat="44.22029" lon="0.66424">
        <ele>84.25</ele>
        <time>2018-08-02T09:02:06Z</time>
      </trkpt>
      <trkpt lat="44.22042" lon="0.66411">
        <ele>82.81</ele>
        <time>2018-08-02T09:02:22Z</time>
      </trkpt>
      <trkpt lat="44.22042" lon="0.6641">
        <ele>82.81</ele>
        <time>2018-08-02T09:02:23Z</time>
      </trkpt>
      <trkpt lat="44.22054" lon="0.66402">
        <ele>80.89</ele>
        <time>2018-08-02T09:02:37Z</time>
      </trkpt>
      <trkpt lat="44.22066" lon="0.66389">
        <ele>79.45</ele>
        <time>2018-08-02T09:02:53Z</time>
      </trkpt>
      <trkpt lat="44.2208" lon="0.6639">
        <ele>78</ele>
        <time>2018-08-02T09:03:08Z</time>
      </trkpt>
      <trkpt lat="44.22092" lon="0.66409">
        <ele>76.56</ele>
        <time>2018-08-02T09:03:25Z</time>
      </trkpt>
      <trkpt lat="44.22097" lon="0.66419">
        <ele>76.08</ele>
        <time>2018-08-02T09:03:32Z</time>
      </trkpt>
      <trkpt lat="44.22106" lon="0.66427">
        <ele>75.12</ele>
        <time>2018-08-02T09:03:50Z</time>
      </trkpt>
      <trkpt lat="44.22109" lon="0.66422">
        <ele>75.12</ele>
        <time>2018-08-02T09:04:05Z</time>
      </trkpt>
      <trkpt lat="44.22121" lon="0.66425">
        <ele>74.16</ele>
        <time>2018-08-02T09:04:18Z</time>
      </trkpt>
      <trkpt lat="44.22134" lon="0.66434">
        <ele>72.24</ele>
        <time>2018-08-02T09:04:34Z</time>
      </trkpt>
      <trkpt lat="44.22145" lon="0.66447">
        <ele>70.79</ele>
        <time>2018-08-02T09:04:50Z</time>
      </trkpt>
      <trkpt lat="44.22152" lon="0.66462">
        <ele>69.83</ele>
        <time>2018-08-02T09:05:03Z</time>
      </trkpt>
      <trkpt lat="44.22158" lon="0.66471">
        <ele>69.35</ele>
        <time>2018-08-02T09:05:13Z</time>
      </trkpt>
      <trkpt lat="44.22167" lon="0.66473">
        <ele>68.87</ele>
        <time>2018-08-02T09:05:23Z</time>
      </trkpt>
      <trkpt lat="44.22179" lon="0.6647">
        <ele>68.87</ele>
        <time>2018-08-02T09:05:35Z</time>
      </trkpt>
      <trkpt lat="44.22193" lon="0.66463">
        <ele>68.39</ele>
        <time>2018-08-02T09:05:49Z</time>
      </trkpt>
      <trkpt lat="44.22206" lon="0.66456">
        <ele>67.91</ele>
        <time>2018-08-02T09:06:06Z</time>
      </trkpt>
      <trkpt lat="44.22215" lon="0.66459">
        <ele>67.91</ele>
        <time>2018-08-02T09:06:14Z</time>
      </trkpt>
      <trkpt lat="44.22221" lon="0.66464">
        <ele>67.91</ele>
        <time>2018-08-02T09:06:20Z</time>
      </trkpt>
      <trkpt lat="44.2223" lon="0.66479">
        <ele>67.91</ele>
        <time>2018-08-02T09:06:34Z</time>
      </trkpt>
      <trkpt lat="44.22245" lon="0.66504">
        <ele>67.91</ele>
        <time>2018-08-02T09:06:55Z</time>
      </trkpt>
      <trkpt lat="44.22251" lon="0.66521">
        <ele>67.91</ele>
        <time>2018-08-02T09:07:09Z</time>
      </trkpt>
      <trkpt lat="44.22249" lon="0.66536">
        <ele>67.91</ele>
        <time>2018-08-02T09:07:21Z</time>
      </trkpt>
      <trkpt lat="44.22249" lon="0.66537">
        <ele>67.91</ele>
        <time>2018-08-02T09:07:22Z</time>
      </trkpt>
      <trkpt lat="44.22247" lon="0.66539">
        <ele>69.35</ele>
        <time>2018-08-02T09:07:25Z</time>
      </trkpt>
      <trkpt lat="44.22245" lon="0.66539">
        <ele>69.35</ele>
        <time>2018-08-02T09:07:27Z</time>
      </trkpt>
      <trkpt lat="44.22234" lon="0.66547">
        <ele>70.31</ele>
        <time>2018-08-02T09:07:41Z</time>
      </trkpt>
      <trkpt lat="44.2222" lon="0.66555">
        <ele>70.79</ele>
        <time>2018-08-02T09:07:57Z</time>
      </trkpt>
      <trkpt lat="44.22208" lon="0.66565">
        <ele>71.27</ele>
        <time>2018-08-02T09:08:14Z</time>
      </trkpt>
      <trkpt lat="44.22197" lon="0.66576">
        <ele>72.24</ele>
        <time>2018-08-02T09:08:29Z</time>
      </trkpt>
      <trkpt lat="44.22183" lon="0.66587">
        <ele>72.72</ele>
        <time>2018-08-02T09:08:46Z</time>
      </trkpt>
      <trkpt lat="44.22171" lon="0.66594">
        <ele>74.16</ele>
        <time>2018-08-02T09:09:00Z</time>
      </trkpt>
      <trkpt lat="44.22167" lon="0.66612">
        <ele>75.12</ele>
        <time>2018-08-02T09:09:16Z</time>
      </trkpt>
      <trkpt lat="44.22167" lon="0.66618">
        <ele>75.6</ele>
        <time>2018-08-02T09:09:21Z</time>
      </trkpt>
      <trkpt lat="44.22174" lon="0.66634">
        <ele>76.56</ele>
        <time>2018-08-02T09:09:34Z</time>
      </trkpt>
      <trkpt lat="44.2218" lon="0.66648">
        <ele>78</ele>
        <time>2018-08-02T09:09:47Z</time>
      </trkpt>
      <trkpt lat="44.22188" lon="0.66665">
        <ele>79.45</ele>
        <time>2018-08-02T09:10:02Z</time>
      </trkpt>
      <trkpt lat="44.22195" lon="0.66682">
        <ele>80.89</ele>
        <time>2018-08-02T09:10:18Z</time>
      </trkpt>
      <trkpt lat="44.22206" lon="0.66698">
        <ele>81.85</ele>
        <time>2018-08-02T09:10:34Z</time>
      </trkpt>
      <trkpt lat="44.22215" lon="0.66717">
        <ele>82.81</ele>
        <time>2018-08-02T09:10:51Z</time>
      </trkpt>
      <trkpt lat="44.22223" lon="0.66732">
        <ele>83.77</ele>
        <time>2018-08-02T09:11:05Z</time>
      </trkpt>
      <trkpt lat="44.22225" lon="0.66735">
        <ele>84.25</ele>
        <time>2018-08-02T09:11:08Z</time>
      </trkpt>
      <trkpt lat="44.22232" lon="0.6675">
        <ele>84.73</ele>
        <time>2018-08-02T09:11:22Z</time>
      </trkpt>
      <trkpt lat="44.22233" lon="0.66752">
        <ele>84.73</ele>
        <time>2018-08-02T09:11:24Z</time>
      </trkpt>
      <trkpt lat="44.22238" lon="0.6676">
        <ele>85.69</ele>
        <time>2018-08-02T09:11:32Z</time>
      </trkpt>
      <trkpt lat="44.22247" lon="0.66775">
        <ele>86.66</ele>
        <time>2018-08-02T09:11:48Z</time>
      </trkpt>
      <trkpt lat="44.22256" lon="0.66791">
        <ele>88.1</ele>
        <time>2018-08-02T09:12:04Z</time>
      </trkpt>
      <trkpt lat="44.22264" lon="0.66805">
        <ele>90.02</ele>
        <time>2018-08-02T09:12:21Z</time>
      </trkpt>
      <trkpt lat="44.22275" lon="0.66816">
        <ele>91.46</ele>
        <time>2018-08-02T09:12:36Z</time>
      </trkpt>
      <trkpt lat="44.22283" lon="0.66823">
        <ele>91.94</ele>
        <time>2018-08-02T09:12:50Z</time>
      </trkpt>
      <trkpt lat="44.22287" lon="0.66823">
        <ele>93.87</ele>
        <time>2018-08-02T09:12:53Z</time>
      </trkpt>
      <trkpt lat="44.22299" lon="0.66838">
        <ele>93.87</ele>
        <time>2018-08-02T09:13:09Z</time>
      </trkpt>
      <trkpt lat="44.22308" lon="0.6685">
        <ele>94.35</ele>
        <time>2018-08-02T09:13:22Z</time>
      </trkpt>
      <trkpt lat="44.22311" lon="0.66868">
        <ele>94.83</ele>
        <time>2018-08-02T09:13:38Z</time>
      </trkpt>
      <trkpt lat="44.22311" lon="0.66879">
        <ele>95.79</ele>
        <time>2018-08-02T09:13:52Z</time>
      </trkpt>
      <trkpt lat="44.22315" lon="0.66888">
        <ele>95.79</ele>
        <time>2018-08-02T09:14:07Z</time>
      </trkpt>
      <trkpt lat="44.22317" lon="0.66899">
        <ele>95.79</ele>
        <time>2018-08-02T09:14:23Z</time>
      </trkpt>
      <trkpt lat="44.22314" lon="0.66905">
        <ele>94.35</ele>
        <time>2018-08-02T09:14:38Z</time>
      </trkpt>
      <trkpt lat="44.22318" lon="0.66918">
        <ele>94.35</ele>
        <time>2018-08-02T09:14:51Z</time>
      </trkpt>
      <trkpt lat="44.22322" lon="0.66934">
        <ele>95.31</ele>
        <time>2018-08-02T09:15:05Z</time>
      </trkpt>
      <trkpt lat="44.22322" lon="0.66936">
        <ele>96.27</ele>
        <time>2018-08-02T09:15:22Z</time>
      </trkpt>
      <trkpt lat="44.22326" lon="0.66952">
        <ele>96.75</ele>
        <time>2018-08-02T09:15:37Z</time>
      </trkpt>
      <trkpt lat="44.22328" lon="0.6697">
        <ele>96.75</ele>
        <time>2018-08-02T09:15:51Z</time>
      </trkpt>
      <trkpt lat="44.22333" lon="0.66986">
        <ele>95.31</ele>
        <time>2018-08-02T09:16:06Z</time>
      </trkpt>
      <trkpt lat="44.22335" lon="0.67">
        <ele>94.35</ele>
        <time>2018-08-02T09:16:19Z</time>
      </trkpt>
      <trkpt lat="44.22335" lon="0.67015">
        <ele>92.9</ele>
        <time>2018-08-02T09:16:34Z</time>
      </trkpt>
      <trkpt lat="44.22337" lon="0.67024">
        <ele>91.94</ele>
        <time>2018-08-02T09:16:51Z</time>
      </trkpt>
      <trkpt lat="44.2234" lon="0.6704">
        <ele>91.46</ele>
        <time>2018-08-02T09:17:06Z</time>
      </trkpt>
      <trkpt lat="44.22346" lon="0.67056">
        <ele>90.02</ele>
        <time>2018-08-02T09:17:23Z</time>
      </trkpt>
      <trkpt lat="44.2235" lon="0.67073">
        <ele>89.54</ele>
        <time>2018-08-02T09:17:38Z</time>
      </trkpt>
      <trkpt lat="44.22355" lon="0.67091">
        <ele>89.54</ele>
        <time>2018-08-02T09:17:54Z</time>
      </trkpt>
      <trkpt lat="44.22359" lon="0.67105">
        <ele>89.54</ele>
        <time>2018-08-02T09:18:11Z</time>
      </trkpt>
      <trkpt lat="44.22359" lon="0.67115">
        <ele>89.54</ele>
        <time>2018-08-02T09:18:23Z</time>
      </trkpt>
      <trkpt lat="44.22366" lon="0.67134">
        <ele>89.54</ele>
        <time>2018-08-02T09:18:39Z</time>
      </trkpt>
      <trkpt lat="44.22369" lon="0.67143">
        <ele>89.06</ele>
        <time>2018-08-02T09:18:57Z</time>
      </trkpt>
      <trkpt lat="44.22375" lon="0.6716">
        <ele>89.06</ele>
        <time>2018-08-02T09:19:13Z</time>
      </trkpt>
      <trkpt lat="44.22376" lon="0.67164">
        <ele>89.06</ele>
        <time>2018-08-02T09:19:26Z</time>
      </trkpt>
      <trkpt lat="44.22379" lon="0.6717">
        <ele>89.06</ele>
        <time>2018-08-02T09:19:43Z</time>
      </trkpt>
      <trkpt lat="44.2238" lon="0.67178">
        <ele>89.06</ele>
        <time>2018-08-02T09:19:57Z</time>
      </trkpt>
      <trkpt lat="44.22383" lon="0.67186">
        <ele>89.06</ele>
        <time>2018-08-02T09:20:11Z</time>
      </trkpt>
      <trkpt lat="44.22386" lon="0.67197">
        <ele>90.02</ele>
        <time>2018-08-02T09:20:27Z</time>
      </trkpt>
      <trkpt lat="44.22389" lon="0.67206">
        <ele>90.98</ele>
        <time>2018-08-02T09:20:41Z</time>
      </trkpt>
      <trkpt lat="44.22392" lon="0.67217">
        <ele>91.46</ele>
        <time>2018-08-02T09:20:53Z</time>
      </trkpt>
      <trkpt lat="44.22396" lon="0.67232">
        <ele>91.94</ele>
        <time>2018-08-02T09:21:07Z</time>
      </trkpt>
      <trkpt lat="44.22401" lon="0.67246">
        <ele>92.9</ele>
        <time>2018-08-02T09:21:21Z</time>
      </trkpt>
      <trkpt lat="44.22406" lon="0.6726">
        <ele>93.39</ele>
        <time>2018-08-02T09:21:35Z</time>
      </trkpt>
      <trkpt lat="44.22409" lon="0.67271">
        <ele>93.87</ele>
        <time>2018-08-02T09:21:50Z</time>
      </trkpt>
      <trkpt lat="44.2241" lon="0.67282">
        <ele>94.35</ele>
        <time>2018-08-02T09:22:05Z</time>
      </trkpt>
      <trkpt lat="44.22411" lon="0.67291">
        <ele>94.83</ele>
        <time>2018-08-02T09:22:22Z</time>
      </trkpt>
      <trkpt lat="44.22412" lon="0.67303">
        <ele>95.31</ele>
        <time>2018-08-02T09:22:40Z</time>
      </trkpt>
      <trkpt lat="44.22411" lon="0.67313">
        <ele>95.31</ele>
        <time>2018-08-02T09:22:58Z</time>
      </trkpt>
      <trkpt lat="44.22412" lon="0.67326">
        <ele>95.79</ele>
        <time>2018-08-02T09:23:15Z</time>
      </trkpt>
      <trkpt lat="44.22411" lon="0.6734">
        <ele>96.27</ele>
        <time>2018-08-02T09:23:31Z</time>
      </trkpt>
      <trkpt lat="44.22409" lon="0.67355">
        <ele>96.75</ele>
        <time>2018-08-02T09:23:47Z</time>
      </trkpt>
      <trkpt lat="44.2241" lon="0.67364">
        <ele>96.75</ele>
        <time>2018-08-02T09:24:02Z</time>
      </trkpt>
      <trkpt lat="44.22413" lon="0.67372">
        <ele>96.75</ele>
        <time>2018-08-02T09:24:22Z</time>
      </trkpt>
      <trkpt lat="44.22408" lon="0.67375">
        <ele>96.75</ele>
        <time>2018-08-02T09:24:36Z</time>
      </trkpt>
      <trkpt lat="44.22406" lon="0.67382">
        <ele>96.75</ele>
        <time>2018-08-02T09:24:56Z</time>
      </trkpt>
      <trkpt lat="44.22404" lon="0.67395">
        <ele>98.19</ele>
        <time>2018-08-02T09:25:11Z</time>
      </trkpt>
      <trkpt lat="44.22408" lon="0.67412">
        <ele>98.19</ele>
        <time>2018-08-02T09:25:24Z</time>
      </trkpt>
      <trkpt lat="44.22413" lon="0.67434">
        <ele>98.19</ele>
        <time>2018-08-02T09:25:41Z</time>
      </trkpt>
      <trkpt lat="44.22418" lon="0.67457">
        <ele>98.19</ele>
        <time>2018-08-02T09:25:56Z</time>
      </trkpt>
      <trkpt lat="44.22418" lon="0.67461">
        <ele>98.19</ele>
        <time>2018-08-02T09:25:59Z</time>
      </trkpt>
      <trkpt lat="44.22423" lon="0.67485">
        <ele>96.75</ele>
        <time>2018-08-02T09:26:15Z</time>
      </trkpt>
      <trkpt lat="44.22425" lon="0.67497">
        <ele>96.27</ele>
        <time>2018-08-02T09:26:21Z</time>
      </trkpt>
      <trkpt lat="44.22425" lon="0.67523">
        <ele>95.79</ele>
        <time>2018-08-02T09:26:37Z</time>
      </trkpt>
      <trkpt lat="44.22429" lon="0.67544">
        <ele>94.83</ele>
        <time>2018-08-02T09:26:53Z</time>
      </trkpt>
      <trkpt lat="44.22432" lon="0.6757">
        <ele>93.87</ele>
        <time>2018-08-02T09:27:08Z</time>
      </trkpt>
      <trkpt lat="44.22438" lon="0.6759">
        <ele>92.9</ele>
        <time>2018-08-02T09:27:23Z</time>
      </trkpt>
      <trkpt lat="44.22442" lon="0.67611">
        <ele>91.46</ele>
        <time>2018-08-02T09:27:37Z</time>
      </trkpt>
      <trkpt lat="44.22451" lon="0.67627">
        <ele>89.54</ele>
        <time>2018-08-02T09:27:53Z</time>
      </trkpt>
      <trkpt lat="44.22461" lon="0.67647">
        <ele>87.14</ele>
        <time>2018-08-02T09:28:07Z</time>
      </trkpt>
      <trkpt lat="44.22468" lon="0.67665">
        <ele>86.18</ele>
        <time>2018-08-02T09:28:21Z</time>
      </trkpt>
      <trkpt lat="44.22471" lon="0.67669">
        <ele>86.18</ele>
        <time>2018-08-02T09:28:25Z</time>
      </trkpt>
      <trkpt lat="44.22478" lon="0.67677">
        <ele>86.18</ele>
        <time>2018-08-02T09:28:34Z</time>
      </trkpt>
      <trkpt lat="44.22484" lon="0.67698">
        <ele>86.18</ele>
        <time>2018-08-02T09:28:48Z</time>
      </trkpt>
      <trkpt lat="44.22494" lon="0.67723">
        <ele>86.18</ele>
        <time>2018-08-02T09:29:05Z</time>
      </trkpt>
      <trkpt lat="44.22505" lon="0.67742">
        <ele>87.62</ele>
        <time>2018-08-02T09:29:20Z</time>
      </trkpt>
      <trkpt lat="44.22517" lon="0.67756">
        <ele>87.62</ele>
        <time>2018-08-02T09:29:35Z</time>
      </trkpt>
      <trkpt lat="44.22526" lon="0.67767">
        <ele>88.1</ele>
        <time>2018-08-02T09:29:49Z</time>
      </trkpt>
      <trkpt lat="44.22537" lon="0.67777">
        <ele>89.06</ele>
        <time>2018-08-02T09:30:04Z</time>
      </trkpt>
      <trkpt lat="44.22545" lon="0.67785">
        <ele>89.54</ele>
        <time>2018-08-02T09:30:17Z</time>
      </trkpt>
      <trkpt lat="44.22554" lon="0.67799">
        <ele>90.02</ele>
        <time>2018-08-02T09:30:32Z</time>
      </trkpt>
      <trkpt lat="44.22559" lon="0.67809">
        <ele>90.02</ele>
        <time>2018-08-02T09:30:40Z</time>
      </trkpt>
      <trkpt lat="44.22568" lon="0.67825">
        <ele>88.58</ele>
        <time>2018-08-02T09:30:54Z</time>
      </trkpt>
      <trkpt lat="44.22576" lon="0.67839">
        <ele>87.14</ele>
        <time>2018-08-02T09:31:08Z</time>
      </trkpt>
      <trkpt lat="44.22577" lon="0.67847">
        <ele>85.69</ele>
        <time>2018-08-02T09:31:15Z</time>
      </trkpt>
      <trkpt lat="44.22581" lon="0.67866">
        <ele>83.29</ele>
        <time>2018-08-02T09:31:30Z</time>
      </trkpt>
      <trkpt lat="44.22581" lon="0.67868">
        <ele>83.29</ele>
        <time>2018-08-02T09:31:32Z</time>
      </trkpt>
      <trkpt lat="44.22581" lon="0.67872">
        <ele>83.29</ele>
        <time>2018-08-02T09:31:34Z</time>
      </trkpt>
      <trkpt lat="44.22586" lon="0.6789">
        <ele>80.89</ele>
        <time>2018-08-02T09:31:48Z</time>
      </trkpt>
      <trkpt lat="44.22586" lon="0.67889">
        <ele>80.89</ele>
        <time>2018-08-02T09:31:49Z</time>
      </trkpt>
      <trkpt lat="44.22585" lon="0.6789">
        <ele>82.33</ele>
        <time>2018-08-02T09:31:51Z</time>
      </trkpt>
      <trkpt lat="44.22592" lon="0.67905">
        <ele>81.85</ele>
        <time>2018-08-02T09:32:05Z</time>
      </trkpt>
      <trkpt lat="44.22601" lon="0.67927">
        <ele>80.89</ele>
        <time>2018-08-02T09:32:21Z</time>
      </trkpt>
      <trkpt lat="44.22608" lon="0.67942">
        <ele>80.41</ele>
        <time>2018-08-02T09:32:32Z</time>
      </trkpt>
      <trkpt lat="44.22616" lon="0.67959">
        <ele>78.48</ele>
        <time>2018-08-02T09:32:47Z</time>
      </trkpt>
      <trkpt lat="44.22617" lon="0.6796">
        <ele>78.48</ele>
        <time>2018-08-02T09:32:48Z</time>
      </trkpt>
      <trkpt lat="44.22619" lon="0.67967">
        <ele>77.52</ele>
        <time>2018-08-02T09:32:53Z</time>
      </trkpt>
      <trkpt lat="44.22623" lon="0.67978">
        <ele>77.52</ele>
        <time>2018-08-02T09:33:05Z</time>
      </trkpt>
      <trkpt lat="44.2263" lon="0.68007">
        <ele>76.56</ele>
        <time>2018-08-02T09:33:24Z</time>
      </trkpt>
      <trkpt lat="44.22634" lon="0.68018">
        <ele>76.08</ele>
        <time>2018-08-02T09:33:35Z</time>
      </trkpt>
      <trkpt lat="44.22639" lon="0.68033">
        <ele>77.52</ele>
        <time>2018-08-02T09:33:48Z</time>
      </trkpt>
      <trkpt lat="44.2265" lon="0.68045">
        <ele>78.48</ele>
        <time>2018-08-02T09:34:02Z</time>
      </trkpt>
      <trkpt lat="44.22661" lon="0.68054">
        <ele>79.93</ele>
        <time>2018-08-02T09:34:16Z</time>
      </trkpt>
      <trkpt lat="44.22667" lon="0.6806">
        <ele>81.37</ele>
        <time>2018-08-02T09:34:28Z</time>
      </trkpt>
      <trkpt lat="44.22677" lon="0.68059">
        <ele>83.29</ele>
        <time>2018-08-02T09:34:44Z</time>
      </trkpt>
      <trkpt lat="44.2269" lon="0.68067">
        <ele>85.21</ele>
        <time>2018-08-02T09:35:01Z</time>
      </trkpt>
      <trkpt lat="44.227" lon="0.68072">
        <ele>86.66</ele>
        <time>2018-08-02T09:35:16Z</time>
      </trkpt>
      <trkpt lat="44.22708" lon="0.68078">
        <ele>87.14</ele>
        <time>2018-08-02T09:35:28Z</time>
      </trkpt>
      <trkpt lat="44.2271" lon="0.68079">
        <ele>87.62</ele>
        <time>2018-08-02T09:35:30Z</time>
      </trkpt>
      <trkpt lat="44.22722" lon="0.68082">
        <ele>88.58</ele>
        <time>2018-08-02T09:35:42Z</time>
      </trkpt>
      <trkpt lat="44.22737" lon="0.68095">
        <ele>89.54</ele>
        <time>2018-08-02T09:35:59Z</time>
      </trkpt>
      <trkpt lat="44.22751" lon="0.68107">
        <ele>90.98</ele>
        <time>2018-08-02T09:36:17Z</time>
      </trkpt>
      <trkpt lat="44.22752" lon="0.68109">
        <ele>90.98</ele>
        <time>2018-08-02T09:36:19Z</time>
      </trkpt>
      <trkpt lat="44.22762" lon="0.68117">
        <ele>91.46</ele>
        <time>2018-08-02T09:36:33Z</time>
      </trkpt>
      <trkpt lat="44.22767" lon="0.68123">
        <ele>91.94</ele>
        <time>2018-08-02T09:36:40Z</time>
      </trkpt>
      <trkpt lat="44.22774" lon="0.68132">
        <ele>92.9</ele>
        <time>2018-08-02T09:36:50Z</time>
      </trkpt>
      <trkpt lat="44.22782" lon="0.68147">
        <ele>93.87</ele>
        <time>2018-08-02T09:37:05Z</time>
      </trkpt>
      <trkpt lat="44.22793" lon="0.6816">
        <ele>94.83</ele>
        <time>2018-08-02T09:37:19Z</time>
      </trkpt>
      <trkpt lat="44.22797" lon="0.68165">
        <ele>94.83</ele>
        <time>2018-08-02T09:37:25Z</time>
      </trkpt>
      <trkpt lat="44.22807" lon="0.68167">
        <ele>95.79</ele>
        <time>2018-08-02T09:37:37Z</time>
      </trkpt>
      <trkpt lat="44.22808" lon="0.68166">
        <ele>95.79</ele>
        <time>2018-08-02T09:37:38Z</time>
      </trkpt>
      <trkpt lat="44.22815" lon="0.68161">
        <ele>95.79</ele>
        <time>2018-08-02T09:37:46Z</time>
      </trkpt>
      <trkpt lat="44.22824" lon="0.68148">
        <ele>95.79</ele>
        <time>2018-08-02T09:37:59Z</time>
      </trkpt>
      <trkpt lat="44.22833" lon="0.68152">
        <ele>95.79</ele>
        <time>2018-08-02T09:38:10Z</time>
      </trkpt>
      <trkpt lat="44.22833" lon="0.68155">
        <ele>94.35</ele>
        <time>2018-08-02T09:38:12Z</time>
      </trkpt>
      <trkpt lat="44.2284" lon="0.68171">
        <ele>92.9</ele>
        <time>2018-08-02T09:38:26Z</time>
      </trkpt>
      <trkpt lat="44.22847" lon="0.68187">
        <ele>91.94</ele>
        <time>2018-08-02T09:38:41Z</time>
      </trkpt>
      <trkpt lat="44.22856" lon="0.68201">
        <ele>90.5</ele>
        <time>2018-08-02T09:38:55Z</time>
      </trkpt>
      <trkpt lat="44.22863" lon="0.68219">
        <ele>90.5</ele>
        <time>2018-08-02T09:39:10Z</time>
      </trkpt>
      <trkpt lat="44.22868" lon="0.68233">
        <ele>91.94</ele>
        <time>2018-08-02T09:39:21Z</time>
      </trkpt>
      <trkpt lat="44.22876" lon="0.68253">
        <ele>93.39</ele>
        <time>2018-08-02T09:39:36Z</time>
      </trkpt>
      <trkpt lat="44.22877" lon="0.68256">
        <ele>93.39</ele>
        <time>2018-08-02T09:39:38Z</time>
      </trkpt>
      <trkpt lat="44.22881" lon="0.68264">
        <ele>93.39</ele>
        <time>2018-08-02T09:39:45Z</time>
      </trkpt>
      <trkpt lat="44.22886" lon="0.68272">
        <ele>93.39</ele>
        <time>2018-08-02T09:39:50Z</time>
      </trkpt>
      <trkpt lat="44.22889" lon="0.68275">
        <ele>93.39</ele>
        <time>2018-08-02T09:39:53Z</time>
      </trkpt>
      <trkpt lat="44.22899" lon="0.68286">
        <ele>93.39</ele>
        <time>2018-08-02T09:40:05Z</time>
      </trkpt>
      <trkpt lat="44.22903" lon="0.68303">
        <ele>91.94</ele>
        <time>2018-08-02T09:40:16Z</time>
      </trkpt>
      <trkpt lat="44.22913" lon="0.6832">
        <ele>90.5</ele>
        <time>2018-08-02T09:40:31Z</time>
      </trkpt>
      <trkpt lat="44.22913" lon="0.68321">
        <ele>90.5</ele>
        <time>2018-08-02T09:40:32Z</time>
      </trkpt>
      <trkpt lat="44.22921" lon="0.68334">
        <ele>89.54</ele>
        <time>2018-08-02T09:40:44Z</time>
      </trkpt>
      <trkpt lat="44.22935" lon="0.68357">
        <ele>89.06</ele>
        <time>2018-08-02T09:41:03Z</time>
      </trkpt>
      <trkpt lat="44.22943" lon="0.68371">
        <ele>90.98</ele>
        <time>2018-08-02T09:41:17Z</time>
      </trkpt>
      <trkpt lat="44.22951" lon="0.68376">
        <ele>90.98</ele>
        <time>2018-08-02T09:41:26Z</time>
      </trkpt>
      <trkpt lat="44.22967" lon="0.68378">
        <ele>90.98</ele>
        <time>2018-08-02T09:41:41Z</time>
      </trkpt>
      <trkpt lat="44.22974" lon="0.68377">
        <ele>89.54</ele>
        <time>2018-08-02T09:41:48Z</time>
      </trkpt>
      <trkpt lat="44.22996" lon="0.68371">
        <ele>89.06</ele>
        <time>2018-08-02T09:42:07Z</time>
      </trkpt>
      <trkpt lat="44.23011" lon="0.68369">
        <ele>88.1</ele>
        <time>2018-08-02T09:42:23Z</time>
      </trkpt>
      <trkpt lat="44.23015" lon="0.6837">
        <ele>87.62</ele>
        <time>2018-08-02T09:42:27Z</time>
      </trkpt>
      <trkpt lat="44.23033" lon="0.6837">
        <ele>86.66</ele>
        <time>2018-08-02T09:42:41Z</time>
      </trkpt>
      <trkpt lat="44.23038" lon="0.68365">
        <ele>86.18</ele>
        <time>2018-08-02T09:42:49Z</time>
      </trkpt>
      <trkpt lat="44.2305" lon="0.68359">
        <ele>85.69</ele>
        <time>2018-08-02T09:43:02Z</time>
      </trkpt>
      <trkpt lat="44.23062" lon="0.68347">
        <ele>85.21</ele>
        <time>2018-08-02T09:43:13Z</time>
      </trkpt>
      <trkpt lat="44.23073" lon="0.68342">
        <ele>84.25</ele>
        <time>2018-08-02T09:43:21Z</time>
      </trkpt>
      <trkpt lat="44.23083" lon="0.68326">
        <ele>83.77</ele>
        <time>2018-08-02T09:43:35Z</time>
      </trkpt>
      <trkpt lat="44.23094" lon="0.68315">
        <ele>83.77</ele>
        <time>2018-08-02T09:43:49Z</time>
      </trkpt>
      <trkpt lat="44.23106" lon="0.68303">
        <ele>82.81</ele>
        <time>2018-08-02T09:44:03Z</time>
      </trkpt>
      <trkpt lat="44.23109" lon="0.683">
        <ele>82.81</ele>
        <time>2018-08-02T09:44:07Z</time>
      </trkpt>
      <trkpt lat="44.23117" lon="0.6829">
        <ele>81.85</ele>
        <time>2018-08-02T09:44:22Z</time>
      </trkpt>
      <trkpt lat="44.2312" lon="0.68285">
        <ele>81.37</ele>
        <time>2018-08-02T09:44:29Z</time>
      </trkpt>
      <trkpt lat="44.23124" lon="0.68272">
        <ele>79.93</ele>
        <time>2018-08-02T09:44:41Z</time>
      </trkpt>
      <trkpt lat="44.23127" lon="0.68249">
        <ele>78</ele>
        <time>2018-08-02T09:44:59Z</time>
      </trkpt>
      <trkpt lat="44.23133" lon="0.68234">
        <ele>76.56</ele>
        <time>2018-08-02T09:45:12Z</time>
      </trkpt>
      <trkpt lat="44.23139" lon="0.68237">
        <ele>76.56</ele>
        <time>2018-08-02T09:45:23Z</time>
      </trkpt>
      <trkpt lat="44.23152" lon="0.68245">
        <ele>75.12</ele>
        <time>2018-08-02T09:45:41Z</time>
      </trkpt>
      <trkpt lat="44.2316" lon="0.68249">
        <ele>73.2</ele>
        <time>2018-08-02T09:45:54Z</time>
      </trkpt>
      <trkpt lat="44.23167" lon="0.68254">
        <ele>69.83</ele>
        <time>2018-08-02T09:46:08Z</time>
      </trkpt>
      <trkpt lat="44.23178" lon="0.68243">
        <ele>68.87</ele>
        <time>2018-08-02T09:46:20Z</time>
      </trkpt>
      <trkpt lat="44.23188" lon="0.6824">
        <ele>66.95</ele>
        <time>2018-08-02T09:46:35Z</time>
      </trkpt>
      <trkpt lat="44.23198" lon="0.68249">
        <ele>66.47</ele>
        <time>2018-08-02T09:46:47Z</time>
      </trkpt>
      <trkpt lat="44.23206" lon="0.68263">
        <ele>65.99</ele>
        <time>2018-08-02T09:47:00Z</time>
      </trkpt>
      <trkpt lat="44.23208" lon="0.68269">
        <ele>65.99</ele>
        <time>2018-08-02T09:47:04Z</time>
      </trkpt>
      <trkpt lat="44.23217" lon="0.68288">
        <ele>65.99</ele>
        <time>2018-08-02T09:47:20Z</time>
      </trkpt>
      <trkpt lat="44.23222" lon="0.68292">
        <ele>66.95</ele>
        <time>2018-08-02T09:47:26Z</time>
      </trkpt>
    </trkseg>
  </trk>
</gpx>